Observation data for Sterling City on 12/06/2018      Previous  Date       Current Mesonet Observations  Soil Data  Daily Summary Page  Observations in Plain Language
KSC1 060600Z 16015G20KT 09/05 A3013 RMK A01 T00910051  RH  076%=      5-min Rain = 0
KSC1 060601Z 17017KT 09/05 A3013 RMK A01 T00910051  RH  076%=      5-min Rain = 0
KSC1 060602Z 17014G20KT 09/05 A3013 RMK A01 T00910050  RH  076%=      5-min Rain = 0
KSC1 060603Z 17011KT 09/05 A3013 RMK A01 T00910051  RH  076%=      5-min Rain = 0
KSC1 060604Z 16013G18KT 09/05 A3013 RMK A01 T00910051  RH  076%=      5-min Rain = 0
KSC1 060605Z 17013G18KT 09/05 A3013 RMK A01 T00900051  RH  076%=      5-min Rain = 0
KSC1 060606Z 17013G20KT 09/05 A3013 RMK A01 T00900050  RH  076%=      5-min Rain = 0
KSC1 060607Z 16016KT 09/05 A3013 RMK A01 T00900050  RH  076%=      5-min Rain = 0
KSC1 060608Z 17014G22KT 09/05 A3013 RMK A01 T00900050  RH  076%=      5-min Rain = 0
KSC1 060609Z 16012KT 09/05 A3013 RMK A01 T00900050  RH  076%=      5-min Rain = 0
KSC1 060610Z 17013KT 09/05 A3013 RMK A01 T00900050  RH  076%=      5-min Rain = 0
KSC1 060611Z 17013KT 09/05 A3013 RMK A01 T00900050  RH  076%=      5-min Rain = 0
KSC1 060612Z 17012G17KT 09/05 A3013 RMK A01 T00900050  RH  076%=      5-min Rain = 0
KSC1 060613Z 16015KT 09/05 A3013 RMK A01 T00900050  RH  076%=      5-min Rain = 0
KSC1 060614Z 16015G21KT 09/05 A3013 RMK A01 T00900050  RH  076%=      5-min Rain = 0
KSC1 060615Z 17015KT 09/05 A3013 RMK A01 T00890050  RH  076%=      5-min Rain = 0
KSC1 060616Z 16016KT 09/05 A3013 RMK A01 T00900050  RH  076%=      5-min Rain = 0
KSC1 060617Z 17012G17KT 09/05 A3014 RMK A01 T00900050  RH  076%=      5-min Rain = 0
KSC1 060618Z 17012G18KT 09/05 A3014 RMK A01 T00900049  RH  076%=      5-min Rain = 0
KSC1 060619Z 17010G17KT 09/05 A3014 RMK A01 T00890050  RH  076%=      5-min Rain = 0
KSC1 060620Z 16012G17KT 09/05 A3014 RMK A01 T00890049  RH  076%=      5-min Rain = 0
KSC1 060621Z 17012G18KT 09/05 A3014 RMK A01 T00890050  RH  076%=      5-min Rain = 0
KSC1 060622Z 18014KT 09/05 A3014 RMK A01 T00890050  RH  076%=      5-min Rain = 0
KSC1 060623Z 17008KT 09/05 A3014 RMK A01 T00890050  RH  076%=      5-min Rain = 0
KSC1 060624Z 17011KT 09/05 A3014 RMK A01 T00890050  RH  076%=      5-min Rain = 0
KSC1 060625Z 17013KT 09/05 A3014 RMK A01 T00890050  RH  076%=      5-min Rain = 0
KSC1 060626Z 17014KT 09/05 A3014 RMK A01 T00890050  RH  076%=      5-min Rain = 0
KSC1 060627Z 17013KT 09/05 A3014 RMK A01 T00890050  RH  076%=      5-min Rain = 0
KSC1 060628Z 17009G14KT 09/05 A3014 RMK A01 T00890050  RH  076%=      5-min Rain = 0
KSC1 060629Z 16009KT 09/05 A3014 RMK A01 T00890050  RH  076%=      5-min Rain = 0
KSC1 060630Z 18009KT 09/05 A3014 RMK A01 T00890050  RH  076%=      5-min Rain = 0
KSC1 060631Z 16009KT 09/05 A3014 RMK A01 T00890050  RH  076%=      5-min Rain = 0
KSC1 060632Z 17010G15KT 09/05 A3014 RMK A01 T00890050  RH  076%=      5-min Rain = 0
KSC1 060633Z 17011KT 09/05 A3014 RMK A01 T00890050  RH  076%=      5-min Rain = 0
KSC1 060634Z 16011KT 09/05 A3014 RMK A01 T00900050  RH  076%=      5-min Rain = 0
KSC1 060635Z 15011G18KT 09/05 A3014 RMK A01 T00900050  RH  076%=      5-min Rain = 0
KSC1 060636Z 16012G17KT 09/05 A3013 RMK A01 T00900051  RH  077%=      5-min Rain = 0
KSC1 060637Z 16009KT 09/05 A3014 RMK A01 T00900051  RH  077%=      5-min Rain = 0
KSC1 060638Z 17009KT 09/05 A3013 RMK A01 T00900051  RH  077%=      5-min Rain = 0
KSC1 060639Z 16012G18KT 09/05 A3013 RMK A01 T00900051  RH  077%=      5-min Rain = 0
KSC1 060640Z 16015KT 09/05 A3013 RMK A01 T00900051  RH  077%=      5-min Rain = 0
KSC1 060641Z 16012KT 09/05 A3013 RMK A01 T00900052  RH  077%=      5-min Rain = 0
KSC1 060642Z 16013KT 09/05 A3013 RMK A01 T00900052  RH  077%=      5-min Rain = 0
KSC1 060643Z 17012KT 09/05 A3013 RMK A01 T00900052  RH  077%=      5-min Rain = 0
KSC1 060644Z 16012KT 09/05 A3012 RMK A01 T00900052  RH  077%=      5-min Rain = 0
KSC1 060645Z 17010G16KT 09/05 A3013 RMK A01 T00900052  RH  077%=      5-min Rain = 0
KSC1 060646Z 17011KT 09/05 A3013 RMK A01 T00900052  RH  077%=      5-min Rain = 0
KSC1 060647Z 16013KT 09/05 A3012 RMK A01 T00900052  RH  077%=      5-min Rain = 0
KSC1 060648Z 17015G21KT 09/05 A3012 RMK A01 T00900052  RH  077%=      5-min Rain = 0
KSC1 060649Z 17011KT 09/05 A3012 RMK A01 T00900053  RH  077%=      5-min Rain = 0
KSC1 060650Z 16011KT 09/05 A3012 RMK A01 T00900053  RH  077%=      5-min Rain = 0
KSC1 060651Z 17016KT 09/05 A3012 RMK A01 T00900053  RH  077%=      5-min Rain = 0
KSC1 060652Z 17015KT 09/05 A3012 RMK A01 T00900053  RH  077%=      5-min Rain = 0
KSC1 060653Z 17013G18KT 09/05 A3012 RMK A01 T00910053  RH  077%=      5-min Rain = 0
KSC1 060654Z 17012G17KT 09/05 A3012 RMK A01 T00910053  RH  077%=      5-min Rain = 0
KSC1 060655Z 16013G19KT 09/05 A3012 RMK A01 T00910053  RH  077%=      5-min Rain = 0
KSC1 060656Z 17010KT 09/05 A3012 RMK A01 T00910053  RH  077%=      5-min Rain = 0
KSC1 060657Z 16011G17KT 09/05 A3012 RMK A01 T00910053  RH  077%=      5-min Rain = 0
KSC1 060658Z 16011G17KT 09/05 A3012 RMK A01 T00910053  RH  077%=      5-min Rain = 0
KSC1 060659Z 17015G21KT 09/05 A3012 RMK A01 T00910053  RH  077%=      5-min Rain = 0
KSC1 060700Z 17010KT 09/05 A3012 RMK A01 T00910053  RH  077%=      5-min Rain = 0
KSC1 060701Z 17010KT 09/05 A3011 RMK A01 T00910053  RH  077%=      5-min Rain = 0
KSC1 060702Z 17017G22KT 09/05 A3011 RMK A01 T00910053  RH  077%=      5-min Rain = 0
KSC1 060703Z 17016KT 09/05 A3011 RMK A01 T00910053  RH  077%=      5-min Rain = 0
KSC1 060704Z 16017KT 09/05 A3011 RMK A01 T00910053  RH  077%=      5-min Rain = 0
KSC1 060705Z 17016G22KT 09/05 A3011 RMK A01 T00910053  RH  077%=      5-min Rain = 0
KSC1 060706Z 17014G19KT 09/05 A3011 RMK A01 T00920053  RH  077%=      5-min Rain = 0
KSC1 060707Z 17013G19KT 09/05 A3012 RMK A01 T00920053  RH  077%=      5-min Rain = 0
KSC1 060708Z 16012KT 09/05 A3012 RMK A01 T00910053  RH  077%=      5-min Rain = 0
KSC1 060709Z 17012KT 09/05 A3012 RMK A01 T00920053  RH  077%=      5-min Rain = 0
KSC1 060710Z 17012KT 09/05 A3012 RMK A01 T00920053  RH  077%=      5-min Rain = 0
KSC1 060711Z 17012G19KT 09/05 A3012 RMK A01 T00910053  RH  077%=      5-min Rain = 0
KSC1 060712Z 17013G21KT 09/05 A3012 RMK A01 T00910053  RH  077%=      5-min Rain = 0
KSC1 060713Z 16013G18KT 09/05 A3012 RMK A01 T00910053  RH  077%=      5-min Rain = 0
KSC1 060714Z 16013KT 09/05 A3012 RMK A01 T00910053  RH  077%=      5-min Rain = 0
KSC1 060715Z 17016G21KT 09/05 A3012 RMK A01 T00910053  RH  077%=      5-min Rain = 0
KSC1 060716Z 17013G18KT 09/05 A3012 RMK A01 T00910053  RH  077%=      5-min Rain = 0
KSC1 060717Z 17012G19KT 09/05 A3012 RMK A01 T00910053  RH  077%=      5-min Rain = 0
KSC1 060718Z 17013KT 09/05 A3012 RMK A01 T00910053  RH  077%=      5-min Rain = 0
KSC1 060719Z 17013KT 09/05 A3012 RMK A01 T00910053  RH  077%=      5-min Rain = 0
KSC1 060720Z 17012G17KT 09/05 A3012 RMK A01 T00910053  RH  077%=      5-min Rain = 0
KSC1 060721Z 16012G17KT 09/05 A3012 RMK A01 T00910053  RH  077%=      5-min Rain = 0
KSC1 060722Z 17015G20KT 09/05 A3012 RMK A01 T00910053  RH  077%=      5-min Rain = 0
KSC1 060723Z 17012KT 09/05 A3012 RMK A01 T00910053  RH  077%=      5-min Rain = 0
KSC1 060724Z 17013KT 09/05 A3012 RMK A01 T00910053  RH  077%=      5-min Rain = 0
KSC1 060725Z 17016KT 09/05 A3012 RMK A01 T00910053  RH  077%=      5-min Rain = 0
KSC1 060726Z 17014KT 09/05 A3012 RMK A01 T00910053  RH  077%=      5-min Rain = 0
KSC1 060727Z 17014KT 09/05 A3012 RMK A01 T00910053  RH  077%=      5-min Rain = 0
KSC1 060728Z 17013G18KT 09/05 A3012 RMK A01 T00910054  RH  077%=      5-min Rain = 0
KSC1 060729Z 17016G22KT 09/05 A3012 RMK A01 T00910053  RH  077%=      5-min Rain = 0
KSC1 060730Z 16018G23KT 09/05 A3012 RMK A01 T00910054  RH  078%=      5-min Rain = 0
KSC1 060731Z 16013KT 09/05 A3012 RMK A01 T00910054  RH  077%=      5-min Rain = 0
KSC1 060732Z 17016G22KT 09/06 A3011 RMK A01 T00920055  RH  078%=      5-min Rain = 0
KSC1 060733Z 16014KT 09/06 A3012 RMK A01 T00920055  RH  078%=      5-min Rain = 0
KSC1 060734Z 17013G18KT 09/06 A3011 RMK A01 T00910055  RH  078%=      5-min Rain = 0
KSC1 060735Z 17015G20KT 09/06 A3011 RMK A01 T00910055  RH  078%=      5-min Rain = 0
KSC1 060736Z 17013KT 09/06 A3011 RMK A01 T00910055  RH  078%=      5-min Rain = 0
KSC1 060737Z 16009KT 09/06 A3011 RMK A01 T00910055  RH  078%=      5-min Rain = 0
KSC1 060738Z 16015KT 09/05 A3011 RMK A01 T00910054  RH  078%=      5-min Rain = 0
KSC1 060739Z 17013G19KT 09/06 A3011 RMK A01 T00910055  RH  078%=      5-min Rain = 0
KSC1 060740Z 16011KT 09/06 A3011 RMK A01 T00910055  RH  078%=      5-min Rain = 0
KSC1 060741Z 16015KT 09/06 A3011 RMK A01 T00910055  RH  078%=      5-min Rain = 0
KSC1 060742Z 17012KT 09/06 A3011 RMK A01 T00910055  RH  078%=      5-min Rain = 0
KSC1 060743Z 17013G19KT 09/06 A3011 RMK A01 T00910055  RH  078%=      5-min Rain = 0
KSC1 060744Z 17013KT 09/06 A3011 RMK A01 T00910055  RH  078%=      5-min Rain = 0
KSC1 060745Z 16013KT 09/06 A3011 RMK A01 T00900055  RH  078%=      5-min Rain = 0
KSC1 060746Z 17009KT 09/06 A3011 RMK A01 T00900055  RH  078%=      5-min Rain = 0
KSC1 060747Z 16011KT 09/06 A3011 RMK A01 T00900055  RH  079%=      5-min Rain = 0
KSC1 060748Z 17013G18KT 09/06 A3011 RMK A01 T00900055  RH  079%=      5-min Rain = 0
KSC1 060749Z 17011KT 09/06 A3011 RMK A01 T00900055  RH  079%=      5-min Rain = 0
KSC1 060750Z 17010KT 09/06 A3011 RMK A01 T00900055  RH  079%=      5-min Rain = 0
KSC1 060751Z 18010G15KT 09/06 A3012 RMK A01 T00900055  RH  079%=      5-min Rain = 0
KSC1 060752Z 16008KT 09/05 A3012 RMK A01 T00890054  RH  079%=      5-min Rain = 0
KSC1 060753Z 16015KT 09/05 A3011 RMK A01 T00890054  RH  079%=      5-min Rain = 0
KSC1 060754Z 17012KT 09/06 A3012 RMK A01 T00890055  RH  079%=      5-min Rain = 0
KSC1 060755Z 17011G16KT 09/06 A3012 RMK A01 T00890055  RH  079%=      5-min Rain = 0
KSC1 060756Z 17011KT 09/05 A3012 RMK A01 T00890054  RH  079%=      5-min Rain = 0
KSC1 060757Z 18011KT 09/05 A3012 RMK A01 T00890054  RH  079%=      5-min Rain = 0
KSC1 060758Z 17011KT 09/05 A3012 RMK A01 T00890054  RH  079%=      5-min Rain = 0
KSC1 060759Z 18013KT 09/05 A3012 RMK A01 T00890054  RH  079%=      5-min Rain = 0
KSC1 060800Z 17012KT 09/05 A3012 RMK A01 T00890054  RH  079%=      5-min Rain = 0
KSC1 060801Z 18011G17KT 09/05 A3012 RMK A01 T00890054  RH  079%=      5-min Rain = 0
KSC1 060802Z 18012KT 09/05 A3012 RMK A01 T00890054  RH  079%=      5-min Rain = 0
KSC1 060803Z 18011KT 09/05 A3012 RMK A01 T00890054  RH  079%=      5-min Rain = 0
KSC1 060804Z 16010KT 09/05 A3012 RMK A01 T00890054  RH  079%=      5-min Rain = 0
KSC1 060805Z 18013KT 09/05 A3012 RMK A01 T00890054  RH  079%=      5-min Rain = 0
KSC1 060806Z 18011KT 09/05 A3012 RMK A01 T00890054  RH  079%=      5-min Rain = 0
KSC1 060807Z 17009KT 09/05 A3012 RMK A01 T00890054  RH  079%=      5-min Rain = 0
KSC1 060808Z 17012KT 09/05 A3012 RMK A01 T00880054  RH  079%=      5-min Rain = 0
KSC1 060809Z 17010KT 09/05 A3012 RMK A01 T00880054  RH  079%=      5-min Rain = 0
KSC1 060810Z 16009KT 09/05 A3012 RMK A01 T00880054  RH  079%=      5-min Rain = 0
KSC1 060811Z 17008KT 09/05 A3012 RMK A01 T00880053  RH  079%=      5-min Rain = 0
KSC1 060812Z 17011KT 09/05 A3012 RMK A01 T00880053  RH  079%=      5-min Rain = 0
KSC1 060813Z 17011KT 09/05 A3012 RMK A01 T00880054  RH  079%=      5-min Rain = 0
KSC1 060814Z 18012KT 09/05 A3012 RMK A01 T00880054  RH  079%=      5-min Rain = 0
KSC1 060815Z 17009KT 09/05 A3012 RMK A01 T00870053  RH  079%=      5-min Rain = 0
KSC1 060816Z 17008KT 09/05 A3012 RMK A01 T00870053  RH  079%=      5-min Rain = 0
KSC1 060817Z 17010KT 09/05 A3012 RMK A01 T00870053  RH  079%=      5-min Rain = 0
KSC1 060818Z 17010KT 09/05 A3012 RMK A01 T00870053  RH  079%=      5-min Rain = 0
KSC1 060819Z 16008KT 09/05 A3012 RMK A01 T00870053  RH  079%=      5-min Rain = 0
KSC1 060820Z 17009KT 09/05 A3012 RMK A01 T00860052  RH  079%=      5-min Rain = 0
KSC1 060821Z 16009KT 09/05 A3012 RMK A01 T00860053  RH  079%=      5-min Rain = 0
KSC1 060822Z 16008KT 09/05 A3012 RMK A01 T00860053  RH  079%=      5-min Rain = 0
KSC1 060823Z 16009KT 09/05 A3011 RMK A01 T00860053  RH  079%=      5-min Rain = 0
KSC1 060824Z 16012KT 09/05 A3011 RMK A01 T00860053  RH  079%=      5-min Rain = 0
KSC1 060825Z 17010KT 09/05 A3011 RMK A01 T00860052  RH  079%=      5-min Rain = 0
KSC1 060826Z 16012G18KT 09/05 A3011 RMK A01 T00860053  RH  079%=      5-min Rain = 0
KSC1 060827Z 16012KT 09/05 A3012 RMK A01 T00860052  RH  079%=      5-min Rain = 0
KSC1 060828Z 16014KT 09/05 A3012 RMK A01 T00860052  RH  079%=      5-min Rain = 0
KSC1 060829Z 16014G19KT 09/05 A3011 RMK A01 T00860052  RH  079%=      5-min Rain = 0
KSC1 060830Z 16013KT 09/05 A3011 RMK A01 T00860052  RH  079%=      5-min Rain = 0
KSC1 060831Z 17012G17KT 09/05 A3011 RMK A01 T00860052  RH  079%=      5-min Rain = 0
KSC1 060832Z 17011KT 09/05 A3011 RMK A01 T00870052  RH  079%=      5-min Rain = 0
KSC1 060833Z 17014G20KT 09/05 A3011 RMK A01 T00860052  RH  079%=      5-min Rain = 0
KSC1 060834Z 16011KT 09/05 A3011 RMK A01 T00860051  RH  079%=      5-min Rain = 0
KSC1 060835Z 16011KT 09/05 A3011 RMK A01 T00860052  RH  079%=      5-min Rain = 0
KSC1 060836Z 17013KT 09/05 A3011 RMK A01 T00860051  RH  079%=      5-min Rain = 0
KSC1 060837Z 17011KT 09/05 A3011 RMK A01 T00860051  RH  079%=      5-min Rain = 0
KSC1 060838Z 17010KT 09/05 A3011 RMK A01 T00860051  RH  079%=      5-min Rain = 0
KSC1 060839Z 16010KT 09/05 A3011 RMK A01 T00860051  RH  079%=      5-min Rain = 0
KSC1 060840Z 17011KT 09/05 A3011 RMK A01 T00860051  RH  079%=      5-min Rain = 0
KSC1 060841Z 17012KT 09/05 A3011 RMK A01 T00860051  RH  079%=      5-min Rain = 0
KSC1 060842Z 17009KT 09/05 A3011 RMK A01 T00860051  RH  079%=      5-min Rain = 0
KSC1 060843Z 17011KT 09/05 A3011 RMK A01 T00850051  RH  079%=      5-min Rain = 0
KSC1 060844Z 17009KT 09/05 A3011 RMK A01 T00850051  RH  079%=      5-min Rain = 0
KSC1 060845Z 18008KT 09/05 A3011 RMK A01 T00850051  RH  079%=      5-min Rain = 0
KSC1 060846Z 17009KT 09/05 A3011 RMK A01 T00850051  RH  079%=      5-min Rain = 0
KSC1 060847Z 17009G14KT 09/05 A3011 RMK A01 T00850051  RH  079%=      5-min Rain = 0
KSC1 060848Z 17011KT 08/05 A3011 RMK A01 T00840051  RH  079%=      5-min Rain = 0
KSC1 060849Z 17010KT 08/05 A3011 RMK A01 T00840051  RH  079%=      5-min Rain = 0
KSC1 060850Z 18009KT 08/05 A3011 RMK A01 T00840051  RH  079%=      5-min Rain = 0
KSC1 060851Z 18007KT 08/05 A3011 RMK A01 T00840051  RH  079%=      5-min Rain = 0
KSC1 060852Z 18008KT 08/05 A3011 RMK A01 T00840050  RH  080%=      5-min Rain = 0
KSC1 060853Z 17009KT 08/05 A3011 RMK A01 T00840051  RH  080%=      5-min Rain = 0
KSC1 060854Z 17008KT 08/05 A3011 RMK A01 T00830051  RH  080%=      5-min Rain = 0
KSC1 060855Z 17007G12KT 08/05 A3011 RMK A01 T00830051  RH  080%=      5-min Rain = 0
KSC1 060856Z 17011KT 08/05 A3011 RMK A01 T00830051  RH  080%=      5-min Rain = 0
KSC1 060857Z 18009KT 08/05 A3011 RMK A01 T00830051  RH  080%=      5-min Rain = 0
KSC1 060858Z 17008KT 08/05 A3011 RMK A01 T00830051  RH  080%=      5-min Rain = 0
KSC1 060859Z 17011KT 08/05 A3011 RMK A01 T00830051  RH  080%=      5-min Rain = 0
KSC1 060900Z 17008KT 08/05 A3011 RMK A01 T00830051  RH  080%=      5-min Rain = 0
KSC1 060901Z 17008KT 08/05 A3011 RMK A01 T00830051  RH  080%=      5-min Rain = 0
KSC1 060902Z 17012KT 08/05 A3011 RMK A01 T00820051  RH  080%=      5-min Rain = 0
KSC1 060903Z 17008KT 08/05 A3011 RMK A01 T00820051  RH  081%=      5-min Rain = 0
KSC1 060904Z 17009KT 08/05 A3011 RMK A01 T00830051  RH  081%=      5-min Rain = 0
KSC1 060905Z 17011KT 08/05 A3011 RMK A01 T00820051  RH  081%=      5-min Rain = 0
KSC1 060906Z 17011KT 08/05 A3011 RMK A01 T00820051  RH  081%=      5-min Rain = 0
KSC1 060907Z 18011KT 08/05 A3011 RMK A01 T00820051  RH  081%=      5-min Rain = 0
KSC1 060908Z 17010G15KT 08/05 A3011 RMK A01 T00820051  RH  081%=      5-min Rain = 0
KSC1 060909Z 18010KT 08/05 A3011 RMK A01 T00820051  RH  081%=      5-min Rain = 0
KSC1 060910Z 17010KT 08/05 A3011 RMK A01 T00820051  RH  081%=      5-min Rain = 0
KSC1 060911Z 17009KT 08/05 A3011 RMK A01 T00820051  RH  081%=      5-min Rain = 0
KSC1 060912Z 17008KT 08/05 A3011 RMK A01 T00820051  RH  081%=      5-min Rain = 0
KSC1 060913Z 17009G14KT 08/05 A3011 RMK A01 T00820051  RH  081%=      5-min Rain = 0
KSC1 060914Z 17011G16KT 08/05 A301 RMK A01 T00820052  RH  081%=      5-min Rain = 0
KSC1 060915Z 17012KT 08/05 A301 RMK A01 T00820052  RH  081%=      5-min Rain = 0
KSC1 060916Z 17009KT 08/05 A301 RMK A01 T00820052  RH  081%=      5-min Rain = 0
KSC1 060917Z 17009KT 08/05 A301 RMK A01 T00820052  RH  081%=      5-min Rain = 0
KSC1 060918Z 17012KT 08/05 A301 RMK A01 T00820052  RH  081%=      5-min Rain = 0
KSC1 060919Z 17010KT 08/05 A301 RMK A01 T00820052  RH  082%=      5-min Rain = 0
KSC1 060920Z 17009KT 08/05 A301 RMK A01 T00810051  RH  081%=      5-min Rain = 0
KSC1 060921Z 17011KT 08/05 A301 RMK A01 T00810052  RH  082%=      5-min Rain = 0
KSC1 060922Z 17010KT 08/05 A301 RMK A01 T00810052  RH  082%=      5-min Rain = 0
KSC1 060923Z 17013G19KT 08/05 A301 RMK A01 T00810052  RH  082%=      5-min Rain = 0
KSC1 060924Z 17010KT 08/05 A301 RMK A01 T00810052  RH  082%=      5-min Rain = 0
KSC1 060925Z 17010KT 08/05 A301 RMK A01 T00810052  RH  082%=      5-min Rain = 0
KSC1 060926Z 18009KT 08/05 A301 RMK A01 T00810052  RH  082%=      5-min Rain = 0
KSC1 060927Z 17013G18KT 08/05 A301 RMK A01 T00810052  RH  082%=      5-min Rain = 0
KSC1 060928Z 17011KT 08/05 A301 RMK A01 T00820053  RH  082%=      5-min Rain = 0
KSC1 060929Z 17010KT 08/05 A301 RMK A01 T00820053  RH  082%=      5-min Rain = 0
KSC1 060930Z 17010KT 08/05 A301 RMK A01 T00820053  RH  082%=      5-min Rain = 0
KSC1 060931Z 18011KT 08/05 A301 RMK A01 T00820053  RH  082%=      5-min Rain = 0
KSC1 060932Z 17009KT 08/05 A301 RMK A01 T00820053  RH  082%=      5-min Rain = 0
KSC1 060933Z 17008KT 08/05 A301 RMK A01 T00820053  RH  082%=      5-min Rain = 0
KSC1 060934Z 17011G16KT 08/05 A301 RMK A01 T00820054  RH  082%=      5-min Rain = 0
KSC1 060935Z 18012G17KT 08/05 A301 RMK A01 T00820054  RH  082%=      5-min Rain = 0
KSC1 060936Z 17010KT 08/05 A301 RMK A01 T00820054  RH  082%=      5-min Rain = 0
KSC1 060937Z 17012KT 08/05 A301 RMK A01 T00830054  RH  082%=      5-min Rain = 0
KSC1 060938Z 17013KT 08/05 A301 RMK A01 T00830054  RH  082%=      5-min Rain = 0
KSC1 060939Z 17008G13KT 08/05 A301 RMK A01 T00830054  RH  082%=      5-min Rain = 0
KSC1 060940Z 17009G15KT 08/05 A301 RMK A01 T00830054  RH  082%=      5-min Rain = 0
KSC1 060941Z 17011G17KT 08/05 A301 RMK A01 T00830054  RH  082%=      5-min Rain = 0
KSC1 060942Z 17013KT 08/06 A301 RMK A01 T00830055  RH  082%=      5-min Rain = 0
KSC1 060943Z 17012KT 08/06 A301 RMK A01 T00830055  RH  082%=      5-min Rain = 0
KSC1 060944Z 17013KT 08/06 A301 RMK A01 T00830055  RH  082%=      5-min Rain = 0
KSC1 060945Z 17011KT 08/06 A301 RMK A01 T00830055  RH  082%=      5-min Rain = 0
KSC1 060946Z 17009KT 08/06 A301 RMK A01 T00830055  RH  082%=      5-min Rain = 0
KSC1 060947Z 17008G14KT 08/06 A301 RMK A01 T00830055  RH  082%=      5-min Rain = 0
KSC1 060948Z 17008KT 08/06 A301 RMK A01 T00830055  RH  082%=      5-min Rain = 0
KSC1 060949Z 17011KT 08/06 A301 RMK A01 T00830055  RH  083%=      5-min Rain = 0
KSC1 060950Z 17015KT 08/06 A301 RMK A01 T00820055  RH  083%=      5-min Rain = 0
KSC1 060951Z 17011KT 08/06 A301 RMK A01 T00830055  RH  083%=      5-min Rain = 0
KSC1 060952Z 17008KT 08/06 A301 RMK A01 T00830055  RH  083%=      5-min Rain = 0
KSC1 060953Z 17008KT 08/06 A301 RMK A01 T00830055  RH  082%=      5-min Rain = 0
KSC1 060954Z 17007KT 08/05 A301 RMK A01 T00820054  RH  083%=      5-min Rain = 0
KSC1 060955Z 17010KT 08/06 A301 RMK A01 T00820055  RH  083%=      5-min Rain = 0
KSC1 060956Z 17011KT 08/06 A301 RMK A01 T00820056  RH  083%=      5-min Rain = 0
KSC1 060957Z 17010KT 08/06 A301 RMK A01 T00820056  RH  083%=      5-min Rain = 0
KSC1 060958Z 17011G16KT 08/06 A301 RMK A01 T00830056  RH  083%=      5-min Rain = 0
KSC1 060959Z 17011G17KT 08/06 A301 RMK A01 T00830056  RH  083%=      5-min Rain = 0
KSC1 061000Z 17012G17KT 08/06 A301 RMK A01 T00830056  RH  083%=      5-min Rain = 0
KSC1 061001Z 17012KT 08/06 A301 RMK A01 T00830057  RH  083%=      5-min Rain = 0
KSC1 061002Z 18009KT 08/06 A301 RMK A01 T00830056  RH  083%=      5-min Rain = 0
KSC1 061003Z 18010KT 08/06 A301 RMK A01 T00830057  RH  083%=      5-min Rain = 0
KSC1 061004Z 17009G14KT 08/06 A301 RMK A01 T00830057  RH  083%=      5-min Rain = 0
KSC1 061005Z 18010KT 08/06 A301 RMK A01 T00830057  RH  084%=      5-min Rain = 0
KSC1 061006Z 17009KT 08/06 A301 RMK A01 T00830057  RH  084%=      5-min Rain = 0
KSC1 061007Z 18009KT 08/06 A301 RMK A01 T00830057  RH  084%=      5-min Rain = 0
KSC1 061008Z 18009KT 08/06 A301 RMK A01 T00830057  RH  084%=      5-min Rain = 0
KSC1 061009Z 17009KT 08/06 A301 RMK A01 T00830057  RH  084%=      5-min Rain = 0
KSC1 061010Z 17009KT 08/06 A301 RMK A01 T00830057  RH  084%=      5-min Rain = 0
KSC1 061011Z 18008KT 08/06 A301 RMK A01 T00830058  RH  084%=      5-min Rain = 0
KSC1 061012Z 17011KT 08/06 A301 RMK A01 T00830058  RH  084%=      5-min Rain = 0
KSC1 061013Z 17010KT 08/06 A301 RMK A01 T00830058  RH  084%=      5-min Rain = 0
KSC1 061014Z 18010KT 08/06 A301 RMK A01 T00830058  RH  084%=      5-min Rain = 0
KSC1 061015Z 17012KT 08/06 A301 RMK A01 T00830058  RH  084%=      5-min Rain = 0
KSC1 061016Z 18010KT 08/06 A301 RMK A01 T00840059  RH  084%=      5-min Rain = 0
KSC1 061017Z 18009KT 08/06 A301 RMK A01 T00840059  RH  084%=      5-min Rain = 0
KSC1 061018Z 18008KT 08/06 A301 RMK A01 T00840059  RH  084%=      5-min Rain = 0
KSC1 061019Z 17009KT 08/06 A301 RMK A01 T00840059  RH  084%=      5-min Rain = 0
KSC1 061020Z 18009KT 08/06 A301 RMK A01 T00840059  RH  084%=      5-min Rain = 0
KSC1 061021Z 17008KT 08/06 A301 RMK A01 T00840059  RH  084%=      5-min Rain = 0
KSC1 061022Z 17010KT 08/06 A301 RMK A01 T00840059  RH  084%=      5-min Rain = 0
KSC1 061023Z 17011KT 08/06 A301 RMK A01 T00840059  RH  084%=      5-min Rain = 0
KSC1 061024Z 18009KT 08/06 A301 RMK A01 T00840060  RH  084%=      5-min Rain = 0
KSC1 061025Z 18009KT 09/06 A301 RMK A01 T00850060  RH  084%=      5-min Rain = 0
KSC1 061026Z 17008KT 09/06 A301 RMK A01 T00850060  RH  084%=      5-min Rain = 0
KSC1 061027Z 17008KT 09/06 A301 RMK A01 T00850060  RH  084%=      5-min Rain = 0
KSC1 061028Z 18008KT 09/06 A301 RMK A01 T00850060  RH  084%=      5-min Rain = 0
KSC1 061029Z 17014KT 08/06 A301 RMK A01 T00840060  RH  085%=      5-min Rain = 0
KSC1 061030Z 17010KT 09/06 A301 RMK A01 T00850060  RH  084%=      5-min Rain = 0
KSC1 061031Z 17009KT 09/06 A301 RMK A01 T00850060  RH  084%=      5-min Rain = 0
KSC1 061032Z 17007G12KT 09/06 A301 RMK A01 T00850060  RH  084%=      5-min Rain = 0
KSC1 061033Z 16009KT 09/06 A301 RMK A01 T00850060  RH  084%=      5-min Rain = 0
KSC1 061034Z 18008KT 09/06 A301 RMK A01 T00850060  RH  084%=      5-min Rain = 0
KSC1 061035Z 16009KT 09/06 A301 RMK A01 T00850060  RH  084%=      5-min Rain = 0
KSC1 061036Z 19006KT 09/06 A301 RMK A01 T00850060  RH  084%=      5-min Rain = 0
KSC1 061037Z 18007KT 09/06 A301 RMK A01 T00850060  RH  084%=      5-min Rain = 0
KSC1 061038Z 18005KT 09/06 A301 RMK A01 T00850060  RH  084%=      5-min Rain = 0
KSC1 061039Z 19005KT 09/06 A301 RMK A01 T00850060  RH  084%=      5-min Rain = 0
KSC1 061040Z 19005KT 09/06 A301 RMK A01 T00850060  RH  084%=      5-min Rain = 0
KSC1 061041Z 18005KT 09/06 A301 RMK A01 T00850060  RH  085%=      5-min Rain = 0
KSC1 061042Z 17006KT 09/06 A301 RMK A01 T00850060  RH  085%=      5-min Rain = 0
KSC1 061043Z 18006KT 09/06 A301 RMK A01 T00850060  RH  085%=      5-min Rain = 0
KSC1 061044Z 18004KT 08/06 A301 RMK A01 T00840060  RH  085%=      5-min Rain = 0
KSC1 061045Z 19008KT 09/06 A301 RMK A01 T00850060  RH  085%=      5-min Rain = 0
KSC1 061046Z 18008KT 09/06 A301 RMK A01 T00850060  RH  085%=      5-min Rain = 0
KSC1 061047Z 19005KT 09/06 A301 RMK A01 T00850060  RH  085%=      5-min Rain = 0
KSC1 061048Z 19005KT 09/06 A301 RMK A01 T00850060  RH  085%=      5-min Rain = 0
KSC1 061049Z 18006KT 09/06 A301 RMK A01 T00850061  RH  085%=      5-min Rain = 0
KSC1 061050Z 19006KT 09/06 A301 RMK A01 T00850061  RH  085%=      5-min Rain = 0
KSC1 061051Z 19009KT 09/06 A301 RMK A01 T00850061  RH  085%=      5-min Rain = 0
KSC1 061052Z 19010KT 09/06 A301 RMK A01 T00850061  RH  085%=      5-min Rain = 0
KSC1 061053Z 18008KT 09/06 A301 RMK A01 T00860061  RH  085%=      5-min Rain = 0
KSC1 061054Z 18009KT 09/06 A301 RMK A01 T00860061  RH  085%=      5-min Rain = 0
KSC1 061055Z 18006KT 09/06 A301 RMK A01 T00850061  RH  085%=      5-min Rain = 0
KSC1 061056Z 18008KT 09/06 A301 RMK A01 T00860061  RH  085%=      5-min Rain = 0
KSC1 061057Z 18008KT 09/06 A301 RMK A01 T00850061  RH  085%=      5-min Rain = 0
KSC1 061058Z 18008KT 09/06 A301 RMK A01 T00860061  RH  085%=      5-min Rain = 0
KSC1 061059Z 19008KT 09/06 A301 RMK A01 T00860061  RH  085%=      5-min Rain = 0
KSC1 061100Z 18005KT 09/06 A301 RMK A01 T00860061  RH  085%=      5-min Rain = 0
KSC1 061101Z 18005KT 09/06 A301 RMK A01 T00860062  RH  085%=      5-min Rain = 0
KSC1 061102Z 19006KT 09/06 A301 RMK A01 T00860062  RH  085%=      5-min Rain = 0
KSC1 061103Z 18007KT 09/06 A301 RMK A01 T00860062  RH  085%=      5-min Rain = 0
KSC1 061104Z 19007KT 09/06 A301 RMK A01 T00860063  RH  085%=      5-min Rain = 0
KSC1 061105Z 18005KT 09/06 A301 RMK A01 T00860063  RH  085%=      5-min Rain = 0
KSC1 061106Z 19008KT 09/06 A301 RMK A01 T00860063  RH  085%=      5-min Rain = 0
KSC1 061107Z 18008KT 09/06 A301 RMK A01 T00860063  RH  085%=      5-min Rain = 0
KSC1 061108Z 20008KT 09/06 A301 RMK A01 T00870064  RH  086%=      5-min Rain = 0
KSC1 061109Z 18008KT 09/06 A301 RMK A01 T00870064  RH  086%=      5-min Rain = 0
KSC1 061110Z 18008KT 09/06 A301 RMK A01 T00870064  RH  086%=      5-min Rain = 0
KSC1 061111Z 19008KT 09/07 A301 RMK A01 T00870065  RH  086%=      5-min Rain = 0
KSC1 061112Z 18007KT 09/07 A301 RMK A01 T00870065  RH  086%=      5-min Rain = 0
KSC1 061113Z 17008KT 09/07 A301 RMK A01 T00870065  RH  086%=      5-min Rain = 0
KSC1 061114Z 18013KT 09/07 A301 RMK A01 T00870065  RH  086%=      5-min Rain = 0
KSC1 061115Z 17011KT 09/07 A301 RMK A01 T00880066  RH  086%=      5-min Rain = 0
KSC1 061116Z 18011KT 09/07 A301 RMK A01 T00880066  RH  086%=      5-min Rain = 0
KSC1 061117Z 18006KT 09/07 A301 RMK A01 T00880066  RH  086%=      5-min Rain = 0
KSC1 061118Z 17009KT 09/07 A301 RMK A01 T00880066  RH  086%=      5-min Rain = 0
KSC1 061119Z 17010KT 09/07 A301 RMK A01 T00880067  RH  087%=      5-min Rain = 0
KSC1 061120Z 18009KT 09/07 A301 RMK A01 T00880067  RH  087%=      5-min Rain = 0
KSC1 061121Z 17008KT 09/07 A301 RMK A01 T00880067  RH  087%=      5-min Rain = 0
KSC1 061122Z 17008KT 09/07 A301 RMK A01 T00880067  RH  087%=      5-min Rain = 0
KSC1 061123Z 18008KT 09/07 A301 RMK A01 T00880068  RH  087%=      5-min Rain = 0
KSC1 061124Z 18008KT 09/07 A301 RMK A01 T00880068  RH  087%=      5-min Rain = 0
KSC1 061125Z 18007KT 09/07 A301 RMK A01 T00880068  RH  087%=      5-min Rain = 0
KSC1 061126Z 18008G13KT 09/07 A301 RMK A01 T00880068  RH  088%=      5-min Rain = 0
KSC1 061127Z 18012KT 09/07 A301 RMK A01 T00880069  RH  088%=      5-min Rain = 0
KSC1 061128Z 18010G15KT 09/07 A301 RMK A01 T00880069  RH  088%=      5-min Rain = 0
KSC1 061129Z 18006KT 09/07 A301 RMK A01 T00880069  RH  088%=      5-min Rain = 0
KSC1 061130Z 17007KT 09/07 A301 RMK A01 T00880069  RH  088%=      5-min Rain = 0
KSC1 061131Z 18006KT 09/07 A301 RMK A01 T00880069  RH  088%=      5-min Rain = 0
KSC1 061132Z 17008KT 09/07 A301 RMK A01 T00880069  RH  088%=      5-min Rain = 0
KSC1 061133Z 18011KT 09/07 A301 RMK A01 T00880070  RH  088%=      5-min Rain = 0
KSC1 061134Z 18008KT 09/07 A301 RMK A01 T00880070  RH  088%=      5-min Rain = 0
KSC1 061135Z 19006KT 09/07 A301 RMK A01 T00880070  RH  088%=      5-min Rain = 0
KSC1 061136Z 19007KT 09/07 A301 RMK A01 T00890070  RH  088%=      5-min Rain = 0
KSC1 061137Z 18006KT 09/07 A301 RMK A01 T00880070  RH  088%=      5-min Rain = 0
KSC1 061138Z 19008KT 09/07 A301 RMK A01 T00880070  RH  089%=      5-min Rain = 0
KSC1 061139Z 19008KT 09/07 A301 RMK A01 T00880071  RH  089%=      5-min Rain = 0
KSC1 061140Z 18008KT 09/07 A301 RMK A01 T00890071  RH  089%=      5-min Rain = 0
KSC1 061141Z 18007G12KT 09/07 A301 RMK A01 T00880071  RH  089%=      5-min Rain = 0
KSC1 061142Z 18009KT 09/07 A301 RMK A01 T00880072  RH  089%=      5-min Rain = 0
KSC1 061143Z 17008KT 09/07 A301 RMK A01 T00880072  RH  089%=      5-min Rain = 0
KSC1 061144Z 18009KT 09/07 A3011 RMK A01 T00880072  RH  090%=      5-min Rain = 0
KSC1 061145Z 18010KT 09/07 A301 RMK A01 T00890072  RH  090%=      5-min Rain = 0
KSC1 061146Z 17012G17KT 09/07 A301 RMK A01 T00890073  RH  090%=      5-min Rain = 0
KSC1 061147Z 18008KT 09/07 A301 RMK A01 T00890073  RH  090%=      5-min Rain = 0
KSC1 061148Z 16010KT 09/07 A301 RMK A01 T00890073  RH  090%=      5-min Rain = 0
KSC1 061149Z 16011KT 09/07 A301 RMK A01 T00890073  RH  090%=      5-min Rain = 0
KSC1 061150Z 17012KT 09/07 A301 RMK A01 T00890074  RH  090%=      5-min Rain = 0
KSC1 061151Z 18009KT 09/07 A301 RMK A01 T00890074  RH  090%=      5-min Rain = 0
KSC1 061152Z 17009KT 09/07 A301 RMK A01 T00890074  RH  090%=      5-min Rain = 0
KSC1 061153Z 17010KT 09/07 A301 RMK A01 T00890074  RH  090%=      5-min Rain = 0
KSC1 061154Z 17007KT 09/07 A301 RMK A01 T00890074  RH  090%=      5-min Rain = 0
KSC1 061155Z 18007KT 09/07 A301 RMK A01 T00890074  RH  091%=      5-min Rain = 0
KSC1 061156Z 17008KT 09/07 A301 RMK A01 T00890074  RH  091%=      5-min Rain = 0
KSC1 061157Z 17010KT 09/07 A301 RMK A01 T00890074  RH  091%=      5-min Rain = 0
KSC1 061158Z 18008KT 09/07 A301 RMK A01 T00890074  RH  091%=      5-min Rain = 0
KSC1 061159Z 17007KT 09/07 A301 RMK A01 T00890074  RH  091%=      5-min Rain = 0
KSC1 061200Z 16007KT 09/08 A301 RMK A01 T00890075  RH  091%=      5-min Rain = 0
KSC1 061201Z 17008KT 09/08 A301 RMK A01 T00890075  RH  091%=      5-min Rain = 0
KSC1 061202Z 18009KT 09/08 A301 RMK A01 T00890075  RH  091%=      5-min Rain = 0
KSC1 061203Z 17009KT 09/08 A301 RMK A01 T00890075  RH  091%=      5-min Rain = 0
KSC1 061204Z 17008KT 09/08 A301 RMK A01 T00890075  RH  091%=      5-min Rain = 0
KSC1 061205Z 17007KT 09/08 A301 RMK A01 T00890075  RH  091%=      5-min Rain = 0
KSC1 061206Z 17006KT 09/08 A301 RMK A01 T00890075  RH  091%=      5-min Rain = 0
KSC1 061207Z 17007KT 09/08 A301 RMK A01 T00890075  RH  091%=      5-min Rain = 0
KSC1 061208Z 17009KT 09/08 A301 RMK A01 T00890075  RH  091%=      5-min Rain = 0
KSC1 061209Z 17010KT 09/08 A301 RMK A01 T00890075  RH  091%=      5-min Rain = 0
KSC1 061210Z 17008KT 09/08 A301 RMK A01 T00890076  RH  091%=      5-min Rain = 0
KSC1 061211Z 17006KT 09/08 A301 RMK A01 T00890075  RH  091%=      5-min Rain = 0
KSC1 061212Z 17010KT 09/08 A301 RMK A01 T00890075  RH  091%=      5-min Rain = 0
KSC1 061213Z 17009KT 09/08 A3011 RMK A01 T00890075  RH  091%=      5-min Rain = 0
KSC1 061214Z 16007KT 09/08 A3011 RMK A01 T00900076  RH  091%=      5-min Rain = 0
KSC1 061215Z 16008KT 09/08 A3011 RMK A01 T00900076  RH  091%=      5-min Rain = 0
KSC1 061216Z 15007KT 09/08 A3011 RMK A01 T00900076  RH  091%=      5-min Rain = 0
KSC1 061217Z 16005KT 09/08 A3011 RMK A01 T00900076  RH  091%=      5-min Rain = 0
KSC1 061218Z 16006KT 09/08 A3011 RMK A01 T00900076  RH  091%=      5-min Rain = 0
KSC1 061219Z 17006KT 09/08 A3011 RMK A01 T00900076  RH  091%=      5-min Rain = 0
KSC1 061220Z 16006KT 09/08 A3011 RMK A01 T00900076  RH  091%=      5-min Rain = 0
KSC1 061221Z 15005KT 09/08 A3011 RMK A01 T00900076  RH  091%=      5-min Rain = 0
KSC1 061222Z 16004KT 09/08 A3011 RMK A01 T00900076  RH  091%=      5-min Rain = 0
KSC1 061223Z 16005KT 09/08 A3011 RMK A01 T00900076  RH  091%=      5-min Rain = 0
KSC1 061224Z 16006KT 09/08 A3011 RMK A01 T00900076  RH  091%=      5-min Rain = 0
KSC1 061225Z 16006KT 09/08 A3011 RMK A01 T00900076  RH  091%=      5-min Rain = 0
KSC1 061226Z 15006KT 09/08 A3011 RMK A01 T00900077  RH  091%=      5-min Rain = 0
KSC1 061227Z 15005KT 09/08 A3011 RMK A01 T00900076  RH  091%=      5-min Rain = 0
KSC1 061228Z 14005KT 09/08 A3011 RMK A01 T00900076  RH  091%=      5-min Rain = 0
KSC1 061229Z 16005KT 09/08 A3011 RMK A01 T00900076  RH  091%=      5-min Rain = 0
KSC1 061230Z 13003KT 09/08 A3011 RMK A01 T00900076  RH  091%=      5-min Rain = 0
KSC1 061231Z 14006KT 09/08 A3011 RMK A01 T00900076  RH  091%=      5-min Rain = 0
KSC1 061232Z 14005KT 09/08 A3011 RMK A01 T00900076  RH  091%=      5-min Rain = 0
KSC1 061233Z 17006KT 09/08 A3011 RMK A01 T00900076  RH  091%=      5-min Rain = 0
KSC1 061234Z 15006KT 09/08 A3011 RMK A01 T00900076  RH  091%=      5-min Rain = 0
KSC1 061235Z 14008KT 09/08 A3012 RMK A01 T00900076  RH  091%=      5-min Rain = 0
KSC1 061236Z 14005KT 09/08 A3012 RMK A01 T00900076  RH  091%=      5-min Rain = 0
KSC1 061237Z 14004KT 09/08 A3012 RMK A01 T00900075  RH  091%=      5-min Rain = 0
KSC1 061238Z 13003KT 09/08 A3012 RMK A01 T00900076  RH  091%=      5-min Rain = 0
KSC1 061239Z 16003KT 09/08 A3012 RMK A01 T00900075  RH  091%=      5-min Rain = 0
KSC1 061240Z 15004KT 09/08 A3012 RMK A01 T00900076  RH  091%=      5-min Rain = 0
KSC1 061241Z 17005KT 09/08 A3012 RMK A01 T00900075  RH  091%=      5-min Rain = 0
KSC1 061242Z 15006KT 09/08 A3012 RMK A01 T00900075  RH  091%=      5-min Rain = 0
KSC1 061243Z 16003KT 09/08 A3012 RMK A01 T00900075  RH  091%=      5-min Rain = 0
KSC1 061244Z 15003KT 09/08 A3012 RMK A01 T00900076  RH  091%=      5-min Rain = 0
KSC1 061245Z 15003KT 09/08 A3012 RMK A01 T00900075  RH  091%=      5-min Rain = 0
KSC1 061246Z 12003KT 09/08 A3012 RMK A01 T00900075  RH  091%=      5-min Rain = 0
KSC1 061247Z 12003KT 09/08 A3012 RMK A01 T00900075  RH  091%=      5-min Rain = 0
KSC1 061248Z 12005KT 09/08 A3012 RMK A01 T00900075  RH  091%=      5-min Rain = 0
KSC1 061249Z 14006KT 09/08 A3011 RMK A01 T00900076  RH  091%=      5-min Rain = 0
KSC1 061250Z 15006KT 09/08 A3011 RMK A01 T00900077  RH  091%=      5-min Rain = 0
KSC1 061251Z 17007KT 09/08 A3011 RMK A01 T00900076  RH  091%=      5-min Rain = 0
KSC1 061252Z 16005KT 09/08 A3011 RMK A01 T00900076  RH  092%=      5-min Rain = 0
KSC1 061253Z 16007KT 09/08 A3011 RMK A01 T00900077  RH  092%=      5-min Rain = 0
KSC1 061254Z 15008KT 09/08 A3011 RMK A01 T00900077  RH  092%=      5-min Rain = 0
KSC1 061255Z 14008KT 09/08 A3011 RMK A01 T00900077  RH  092%=      5-min Rain = 0
KSC1 061256Z 15009KT 09/08 A3011 RMK A01 T00900077  RH  092%=      5-min Rain = 0
KSC1 061257Z 14007KT 09/08 A3011 RMK A01 T00900077  RH  092%=      5-min Rain = 0
KSC1 061258Z 14006KT 09/08 A3011 RMK A01 T00900077  RH  092%=      5-min Rain = 0
KSC1 061259Z 14008KT 09/08 A3011 RMK A01 T00900077  RH  092%=      5-min Rain = 0
KSC1 061300Z 15008KT 09/08 A3011 RMK A01 T00900077  RH  092%=      5-min Rain = 0
KSC1 061301Z 15009KT 09/08 A3011 RMK A01 T00900077  RH  092%=      5-min Rain = 0
KSC1 061302Z 15008KT 09/08 A3011 RMK A01 T00900077  RH  092%=      5-min Rain = 0
KSC1 061303Z 15010KT 09/08 A3011 RMK A01 T00900077  RH  092%=      5-min Rain = 0
KSC1 061304Z 15012KT 09/08 A3011 RMK A01 T00900077  RH  092%=      5-min Rain = 0
KSC1 061305Z 16012KT 09/08 A3011 RMK A01 T00900078  RH  092%=      5-min Rain = 0
KSC1 061306Z 15012KT 09/08 A3011 RMK A01 T00900077  RH  092%=      5-min Rain = 0
KSC1 061307Z 15011KT 09/08 A3011 RMK A01 T00900078  RH  092%=      5-min Rain = 0
KSC1 061308Z 16011KT 09/08 A3011 RMK A01 T00900077  RH  092%=      5-min Rain = 0
KSC1 061309Z 17009KT 09/08 A3011 RMK A01 T00900077  RH  092%=      5-min Rain = 0
KSC1 061310Z 17007KT 09/08 A3011 RMK A01 T00900077  RH  092%=      5-min Rain = 0
KSC1 061311Z 16007KT 09/08 A3011 RMK A01 T00900078  RH  092%=      5-min Rain = 0
KSC1 061312Z 16010KT 09/08 A3011 RMK A01 T00900077  RH  092%=      5-min Rain = 0
KSC1 061313Z 18007KT 09/08 A3011 RMK A01 T00890077  RH  092%=      5-min Rain = 0
KSC1 061314Z 17006KT 09/08 A3012 RMK A01 T00900078  RH  092%=      5-min Rain = 0
KSC1 061315Z 16006KT 09/08 A3012 RMK A01 T00900078  RH  092%=      5-min Rain = 0
KSC1 061316Z 16006KT 09/08 A3012 RMK A01 T00900078  RH  092%=      5-min Rain = 0
KSC1 061317Z 18007KT 09/08 A3012 RMK A01 T00900078  RH  092%=      5-min Rain = 0
KSC1 061318Z 17009KT 09/08 A3012 RMK A01 T00900078  RH  092%=      5-min Rain = 0
KSC1 061319Z 17007KT 09/08 A3012 RMK A01 T00890078  RH  092%=      5-min Rain = 0
KSC1 061320Z 17009G14KT 09/08 A3012 RMK A01 T00900078  RH  092%=      5-min Rain = 0
KSC1 061321Z 18010KT 09/08 A3012 RMK A01 T00900078  RH  092%=      5-min Rain = 0
KSC1 061322Z 17006KT 09/08 A3012 RMK A01 T00900078  RH  092%=      5-min Rain = 0
KSC1 061323Z 17007KT 09/08 A3012 RMK A01 T00900078  RH  092%=      5-min Rain = 0
KSC1 061324Z 16007KT 09/08 A3012 RMK A01 T00900078  RH  092%=      5-min Rain = 0
KSC1 061325Z 15008KT 09/08 A3012 RMK A01 T00900078  RH  093%=      5-min Rain = 0
KSC1 061326Z 15008KT 09/08 A3012 RMK A01 T00900079  RH  093%=      5-min Rain = 0
KSC1 061327Z 16011KT 09/08 A3012 RMK A01 T00900078  RH  093%=      5-min Rain = 0
KSC1 061328Z 16009KT 09/08 A3012 RMK A01 T00900079  RH  093%=      5-min Rain = 0
KSC1 061329Z 16008KT 09/08 A3012 RMK A01 T00900079  RH  093%=      5-min Rain = 0
KSC1 061330Z 18007KT 09/08 A3012 RMK A01 T00900079  RH  093%=      5-min Rain = 0
KSC1 061331Z 16007KT 09/08 A3012 RMK A01 T00900079  RH  093%=      5-min Rain = 0
KSC1 061332Z 16008KT 09/08 A3012 RMK A01 T00900079  RH  093%=      5-min Rain = 0
KSC1 061333Z 18005KT 09/08 A3012 RMK A01 T00900079  RH  093%=      5-min Rain = 0
KSC1 061334Z 18004KT 09/08 A3012 RMK A01 T00900079  RH  093%=      5-min Rain = 0
KSC1 061335Z 18007KT 09/08 A3012 RMK A01 T00900079  RH  093%=      5-min Rain = 0
KSC1 061336Z 16010KT 09/08 A3013 RMK A01 T00900079  RH  093%=      5-min Rain = 0
KSC1 061337Z 16009KT 09/08 A3013 RMK A01 T00900079  RH  093%=      5-min Rain = 0
KSC1 061338Z 18006KT 09/08 A3013 RMK A01 T00900079  RH  093%=      5-min Rain = 0
KSC1 061339Z 18005KT 09/08 A3013 RMK A01 T00900079  RH  093%=      5-min Rain = 0
KSC1 061340Z 19003KT 09/08 A3013 RMK A01 T00900080  RH  093%=      5-min Rain = 0
KSC1 061341Z 21002KT 09/08 A3014 RMK A01 T00900079  RH  093%=      5-min Rain = 0
KSC1 061342Z 21001KT 09/08 A3014 RMK A01 T00900079  RH  093%=      5-min Rain = 0
KSC1 061343Z 22002KT 09/08 A3014 RMK A01 T00900079  RH  093%=      5-min Rain = 0
KSC1 061344Z 19006KT 09/08 A3014 RMK A01 T00900080  RH  093%=      5-min Rain = 0
KSC1 061345Z 18007KT 09/08 A3014 RMK A01 T00900080  RH  093%=      5-min Rain = 0
KSC1 061346Z 19004KT 09/08 A3014 RMK A01 T00900079  RH  093%=      5-min Rain = 0
KSC1 061347Z 19005KT 09/08 A3014 RMK A01 T00900080  RH  093%=      5-min Rain = 0
KSC1 061348Z 19006KT 09/08 A3014 RMK A01 T00900080  RH  093%=      5-min Rain = 0
KSC1 061349Z 17006KT 09/08 A3014 RMK A01 T00900079  RH  093%=      5-min Rain = 0
KSC1 061350Z 16006KT 09/08 A3014 RMK A01 T00900080  RH  093%=      5-min Rain = 0
KSC1 061351Z 16006KT 09/08 A3014 RMK A01 T00900080  RH  093%=      5-min Rain = 0
KSC1 061352Z 16006KT 09/08 A3014 RMK A01 T00900080  RH  093%=      5-min Rain = 0
KSC1 061353Z 17004KT 09/08 A3014 RMK A01 T00900080  RH  093%=      5-min Rain = 0
KSC1 061354Z 18006KT 09/08 A3014 RMK A01 T00900080  RH  093%=      5-min Rain = 0
KSC1 061355Z 18005KT 09/08 A3014 RMK A01 T00900080  RH  093%=      5-min Rain = 0
KSC1 061356Z 17006KT 09/08 A3014 RMK A01 T00900080  RH  093%=      5-min Rain = 0
KSC1 061357Z 16006KT 09/08 A3014 RMK A01 T00900080  RH  093%=      5-min Rain = 0
KSC1 061358Z 17005KT 09/08 A3014 RMK A01 T00900080  RH  093%=      5-min Rain = 0
KSC1 061359Z 15005KT 09/08 A3014 RMK A01 T00900080  RH  094%=      5-min Rain = 0
KSC1 061400Z 15006KT 09/08 A3014 RMK A01 T00900080  RH  094%=      5-min Rain = 0
KSC1 061401Z 17008KT 09/08 A3014 RMK A01 T00900080  RH  094%=      5-min Rain = 0
KSC1 061402Z 16008KT 09/08 A3014 RMK A01 T00900080  RH  094%=      5-min Rain = 0
KSC1 061403Z 17008KT 09/08 A3014 RMK A01 T00900080  RH  094%=      5-min Rain = 0
KSC1 061404Z 16008KT 09/08 A3014 RMK A01 T00900081  RH  094%=      5-min Rain = 0
KSC1 061405Z 16008KT 09/08 A3014 RMK A01 T00900080  RH  094%=      5-min Rain = 0
KSC1 061406Z 16010KT 09/08 A3014 RMK A01 T00900081  RH  094%=      5-min Rain = 0
KSC1 061407Z 17008KT 09/08 A3014 RMK A01 T00900081  RH  094%=      5-min Rain = 0
KSC1 061408Z 17009KT 09/08 A3014 RMK A01 T00900080  RH  094%=      5-min Rain = 0
KSC1 061409Z 17008KT 09/08 A3014 RMK A01 T00900080  RH  094%=      5-min Rain = 0
KSC1 061410Z 17006KT 09/08 A3014 RMK A01 T00900081  RH  094%=      5-min Rain = 0
KSC1 061411Z 18009KT 09/08 A3014 RMK A01 T00900081  RH  094%=      5-min Rain = 0
KSC1 061412Z 17009KT 09/08 A3014 RMK A01 T00900080  RH  094%=      5-min Rain = 0
KSC1 061413Z 17007KT 09/08 A3014 RMK A01 T00900081  RH  094%=      5-min Rain = 0
KSC1 061414Z 17009KT 09/08 A3014 RMK A01 T00900081  RH  094%=      5-min Rain = 0
KSC1 061415Z 17007KT 09/08 A3014 RMK A01 T00900080  RH  094%=      5-min Rain = 0
KSC1 061416Z 16006KT 09/08 A3014 RMK A01 T00900080  RH  093%=      5-min Rain = 0
KSC1 061417Z 17006KT 09/08 A3014 RMK A01 T00900080  RH  093%=      5-min Rain = 0
KSC1 061418Z 16007KT 09/08 A3014 RMK A01 T00910081  RH  093%=      5-min Rain = 0
KSC1 061419Z 16008KT 09/08 A3014 RMK A01 T00910080  RH  093%=      5-min Rain = 0
KSC1 061420Z 17007KT 09/08 A3014 RMK A01 T00910080  RH  093%=      5-min Rain = 0
KSC1 061421Z 17005KT 09/08 A3014 RMK A01 T00910080  RH  093%=      5-min Rain = 0
KSC1 061422Z 18006KT 09/08 A3014 RMK A01 T00910080  RH  093%=      5-min Rain = 0
KSC1 061423Z 16005KT 09/08 A3014 RMK A01 T00910080  RH  093%=      5-min Rain = 0
KSC1 061424Z 17004KT 09/08 A3014 RMK A01 T00910080  RH  093%=      5-min Rain = 0
KSC1 061425Z 18006KT 09/08 A3014 RMK A01 T00910080  RH  093%=      5-min Rain = 0
KSC1 061426Z 18006KT 09/08 A3014 RMK A01 T00910080  RH  093%=      5-min Rain = 0
KSC1 061427Z 17007KT 09/08 A3014 RMK A01 T00920080  RH  093%=      5-min Rain = 0
KSC1 061428Z 17010KT 09/08 A3014 RMK A01 T00910080  RH  092%=      5-min Rain = 0
KSC1 061429Z 16011KT 09/08 A3014 RMK A01 T00920080  RH  092%=      5-min Rain = 0
KSC1 061430Z 17010KT 09/08 A3014 RMK A01 T00920079  RH  092%=      5-min Rain = 0
KSC1 061431Z 16008KT 09/08 A3014 RMK A01 T00920079  RH  092%=      5-min Rain = 0
KSC1 061432Z 17007KT 09/08 A3014 RMK A01 T00910079  RH  092%=      5-min Rain = 0
KSC1 061433Z 16009KT 09/08 A3014 RMK A01 T00910079  RH  092%=      5-min Rain = 0
KSC1 061434Z 17013KT 09/08 A3014 RMK A01 T00910079  RH  092%=      5-min Rain = 0
KSC1 061435Z 15009KT 09/08 A3014 RMK A01 T00920079  RH  092%=      5-min Rain = 0
KSC1 061436Z 17007KT 09/08 A3015 RMK A01 T00920079  RH  092%=      5-min Rain = 0
KSC1 061437Z 18007KT 09/08 A3015 RMK A01 T00910079  RH  092%=      5-min Rain = 0
KSC1 061438Z 16010KT 09/08 A3015 RMK A01 T00920079  RH  092%=      5-min Rain = 0
KSC1 061439Z 17008KT 09/08 A3015 RMK A01 T00920079  RH  092%=      5-min Rain = 0
KSC1 061440Z 17007KT 09/08 A3015 RMK A01 T00920078  RH  092%=      5-min Rain = 0
KSC1 061441Z 17009KT 09/08 A3015 RMK A01 T00920078  RH  092%=      5-min Rain = 0
KSC1 061442Z 16009KT 09/08 A3015 RMK A01 T00920078  RH  091%=      5-min Rain = 0
KSC1 061443Z 15008KT 09/08 A3015 RMK A01 T00920078  RH  091%=      5-min Rain = 0
KSC1 061444Z 16007KT 09/08 A3015 RMK A01 T00910078  RH  091%=      5-min Rain = 0
KSC1 061445Z 17008KT 09/08 A3015 RMK A01 T00920078  RH  092%=      5-min Rain = 0
KSC1 061446Z 17009KT 09/08 A3015 RMK A01 T00910078  RH  091%=      5-min Rain = 0
KSC1 061447Z 16007KT 09/08 A3015 RMK A01 T00920078  RH  091%=      5-min Rain = 0
KSC1 061448Z 16008KT 09/08 A3015 RMK A01 T00910078  RH  091%=      5-min Rain = 0
KSC1 061449Z 17006KT 09/08 A3015 RMK A01 T00920078  RH  091%=      5-min Rain = 0
KSC1 061450Z 17008KT 09/08 A3015 RMK A01 T00920078  RH  091%=      5-min Rain = 0
KSC1 061451Z 18009KT 09/08 A3016 RMK A01 T00910078  RH  091%=      5-min Rain = 0
KSC1 061452Z 18009KT 09/08 A3016 RMK A01 T00920078  RH  091%=      5-min Rain = 0
KSC1 061453Z 18010KT 09/08 A3016 RMK A01 T00910078  RH  091%=      5-min Rain = 0
KSC1 061454Z 18009KT 09/08 A3016 RMK A01 T00910078  RH  092%=      5-min Rain = 0
KSC1 061455Z 17010KT 09/08 A3016 RMK A01 T00900078  RH  092%=      5-min Rain = 0
KSC1 061456Z 18009KT 09/08 A3016 RMK A01 T00910078  RH  092%=      5-min Rain = 0
KSC1 061457Z 18010KT 09/08 A3016 RMK A01 T00910078  RH  092%=      5-min Rain = 0
KSC1 061458Z 19007KT 09/08 A3016 RMK A01 T00910078  RH  092%=      5-min Rain = 0
KSC1 061459Z 17007KT 09/08 A3016 RMK A01 T00910078  RH  092%=      5-min Rain = 0
KSC1 061500Z 18007KT 09/08 A3016 RMK A01 T00910079  RH  092%=      5-min Rain = 0
KSC1 061501Z 17006KT 09/08 A3016 RMK A01 T00910079  RH  092%=      5-min Rain = 0
KSC1 061502Z 16006KT 09/08 A3016 RMK A01 T00910078  RH  092%=      5-min Rain = 0
KSC1 061503Z 17006KT 09/08 A3017 RMK A01 T00910079  RH  092%=      5-min Rain = 0
KSC1 061504Z 17008KT 09/08 A3017 RMK A01 T00910079  RH  092%=      5-min Rain = 0
KSC1 061505Z 17009KT 09/08 A3017 RMK A01 T00910078  RH  092%=      5-min Rain = 0
KSC1 061506Z 17009KT 09/08 A3017 RMK A01 T00910079  RH  092%=      5-min Rain = 0
KSC1 061507Z 17008KT 09/08 A3017 RMK A01 T00910078  RH  092%=      5-min Rain = 0
KSC1 061508Z 18009KT 09/08 A3017 RMK A01 T00910079  RH  092%=      5-min Rain = 0
KSC1 061509Z 16007KT 09/08 A3017 RMK A01 T00910078  RH  092%=      5-min Rain = 0
KSC1 061510Z 15005KT 09/08 A3017 RMK A01 T00910078  RH  092%=      5-min Rain = 0
KSC1 061511Z 17006G11KT 09/08 A3017 RMK A01 T00910079  RH  092%=      5-min Rain = 0
KSC1 061512Z 17007KT 09/08 A3017 RMK A01 T00920079  RH  092%=      5-min Rain = 0
KSC1 061513Z 16006KT 09/08 A3017 RMK A01 T00920079  RH  091%=      5-min Rain = 0
KSC1 061514Z 15007KT 09/08 A3017 RMK A01 T00920078  RH  091%=      5-min Rain = 0
KSC1 061515Z 15007KT 09/08 A3017 RMK A01 T00920078  RH  091%=      5-min Rain = 0
KSC1 061516Z 14007KT 09/08 A3016 RMK A01 T00920078  RH  091%=      5-min Rain = 0
KSC1 061517Z 16008KT 09/08 A3016 RMK A01 T00920078  RH  091%=      5-min Rain = 0
KSC1 061518Z 17009KT 09/08 A3016 RMK A01 T00930079  RH  091%=      5-min Rain = 0
KSC1 061519Z 15007KT 09/08 A3016 RMK A01 T00930078  RH  091%=      5-min Rain = 0
KSC1 061520Z 16007KT 09/08 A3016 RMK A01 T00930079  RH  091%=      5-min Rain = 0
KSC1 061521Z 16007KT 09/08 A3016 RMK A01 T00930079  RH  091%=      5-min Rain = 0
KSC1 061522Z 15008KT 09/08 A3016 RMK A01 T00930079  RH  091%=      5-min Rain = 0
KSC1 061523Z 15007KT 09/08 A3017 RMK A01 T00930079  RH  091%=      5-min Rain = 0
KSC1 061524Z 16008KT 09/08 A3017 RMK A01 T00940079  RH  091%=      5-min Rain = 0
KSC1 061525Z 17008KT 09/08 A3017 RMK A01 T00940079  RH  091%=      5-min Rain = 0
KSC1 061526Z 16008KT 09/08 A3017 RMK A01 T00940079  RH  090%=      5-min Rain = 0
KSC1 061527Z 17008KT 09/08 A3017 RMK A01 T00940079  RH  090%=      5-min Rain = 0
KSC1 061528Z 18009KT 09/08 A3017 RMK A01 T00930079  RH  090%=      5-min Rain = 0
KSC1 061529Z 16007KT 09/08 A3017 RMK A01 T00930079  RH  091%=      5-min Rain = 0
KSC1 061530Z 17009KT 09/08 A3017 RMK A01 T00930079  RH  091%=      5-min Rain = 0
KSC1 061531Z 17009KT 09/08 A3017 RMK A01 T00940079  RH  090%=      5-min Rain = 0
KSC1 061532Z 17007KT 09/08 A3017 RMK A01 T00930078  RH  090%=      5-min Rain = 0
KSC1 061533Z 18006KT 09/08 A3017 RMK A01 T00930079  RH  091%=      5-min Rain = 0
KSC1 061534Z 17005KT 09/08 A3017 RMK A01 T00940079  RH  090%=      5-min Rain = 0
KSC1 061535Z 18006KT 09/08 A3017 RMK A01 T00940079  RH  090%=      5-min Rain = 0
KSC1 061536Z 18006KT 09/08 A3017 RMK A01 T00940079  RH  090%=      5-min Rain = 0
KSC1 061537Z 18005KT 10/08 A3017 RMK A01 T00950079  RH  090%=      5-min Rain = 0
KSC1 061538Z 16004KT 10/08 A3017 RMK A01 T00950079  RH  090%=      5-min Rain = 0
KSC1 061539Z 16006KT 10/08 A3017 RMK A01 T00960081  RH  090%=      5-min Rain = 0
KSC1 061540Z 16005KT 10/08 A3017 RMK A01 T00970080  RH  089%=      5-min Rain = 0
KSC1 061541Z 17005KT 10/08 A3017 RMK A01 T00970080  RH  090%=      5-min Rain = 0
KSC1 061542Z 17005KT 10/08 A3017 RMK A01 T00980081  RH  089%=      5-min Rain = 0
KSC1 061543Z 17005KT 10/08 A3017 RMK A01 T00980080  RH  089%=      5-min Rain = 0
KSC1 061544Z 16005KT 10/08 A3017 RMK A01 T00980080  RH  088%=      5-min Rain = 0
KSC1 061545Z 18005KT 10/08 A3018 RMK A01 T00980080  RH  088%=      5-min Rain = 0
KSC1 061546Z 19005KT 10/08 A3018 RMK A01 T00990080  RH  088%=      5-min Rain = 0
KSC1 061547Z 18007KT 10/08 A3018 RMK A01 T00990080  RH  088%=      5-min Rain = 0
KSC1 061548Z 18007KT 10/08 A3018 RMK A01 T00990079  RH  087%=      5-min Rain = 0
KSC1 061549Z 17007KT 10/08 A3018 RMK A01 T00980079  RH  088%=      5-min Rain = 0
KSC1 061550Z 17005KT 10/08 A3018 RMK A01 T00970078  RH  088%=      5-min Rain = 0
KSC1 061551Z 16005KT 10/08 A3018 RMK A01 T00970079  RH  089%=      5-min Rain = 0
KSC1 061552Z 16008KT 10/08 A3017 RMK A01 T00980079  RH  088%=      5-min Rain = 0
KSC1 061553Z 16009KT 10/08 A3017 RMK A01 T00980079  RH  088%=      5-min Rain = 0
KSC1 061554Z 17006KT 10/08 A3018 RMK A01 T00980079  RH  088%=      5-min Rain = 0
KSC1 061555Z 18006KT 10/08 A3018 RMK A01 T00980079  RH  088%=      5-min Rain = 0
KSC1 061556Z 16004KT 10/08 A3018 RMK A01 T00990079  RH  088%=      5-min Rain = 0
KSC1 061557Z 16007KT 10/08 A3018 RMK A01 T00990079  RH  088%=      5-min Rain = 0
KSC1 061558Z 16006KT 10/08 A3019 RMK A01 T00990079  RH  087%=      5-min Rain = 0
KSC1 061559Z 16004KT 10/08 A3019 RMK A01 T00990078  RH  087%=      5-min Rain = 0
KSC1 061600Z 18005KT 10/08 A3019 RMK A01 T00990079  RH  087%=      5-min Rain = 0
KSC1 061601Z 17004KT 10/08 A3019 RMK A01 T00980078  RH  087%=      5-min Rain = 0
KSC1 061602Z 17005KT 10/08 A3019 RMK A01 T00980079  RH  088%=      5-min Rain = 0
KSC1 061603Z 17006KT 10/08 A3019 RMK A01 T00990078  RH  087%=      5-min Rain = 0
KSC1 061604Z 16006KT 10/08 A3019 RMK A01 T00980078  RH  087%=      5-min Rain = 0
KSC1 061605Z 16004KT 10/08 A3019 RMK A01 T00980079  RH  088%=      5-min Rain = 0
KSC1 061606Z 16003KT 10/08 A3019 RMK A01 T00980079  RH  088%=      5-min Rain = 0
KSC1 061607Z 15004KT 10/08 A3019 RMK A01 T00990079  RH  088%=      5-min Rain = 0
KSC1 061608Z 16004KT 10/08 A3019 RMK A01 T00990080  RH  088%=      5-min Rain = 0
KSC1 061609Z 18003KT 10/08 A3019 RMK A01 T01000080  RH  087%=      5-min Rain = 0
KSC1 061610Z 18003KT 10/08 A3019 RMK A01 T01000080  RH  087%=      5-min Rain = 0
KSC1 061611Z 21003KT 10/08 A3019 RMK A01 T01010080  RH  087%=      5-min Rain = 0
KSC1 061612Z 20004KT 10/08 A3019 RMK A01 T01010079  RH  086%=      5-min Rain = 0
KSC1 061613Z 16004KT 10/08 A3019 RMK A01 T01010079  RH  086%=      5-min Rain = 0
KSC1 061614Z 17004KT 10/08 A3019 RMK A01 T01010078  RH  085%=      5-min Rain = 0
KSC1 061615Z 19003KT 10/08 A302 RMK A01 T01000078  RH  086%=      5-min Rain = 0
KSC1 061616Z 18003KT 10/08 A302 RMK A01 T01000079  RH  087%=      5-min Rain = 0
KSC1 061617Z 19004KT 10/08 A302 RMK A01 T01010080  RH  087%=      5-min Rain = 0
KSC1 061618Z 18003KT 10/08 A302 RMK A01 T01020079  RH  086%=      5-min Rain = 0
KSC1 061619Z 19003KT 10/08 A302 RMK A01 T01020079  RH  086%=      5-min Rain = 0
KSC1 061620Z 19003KT 10/08 A302 RMK A01 T01020078  RH  085%=      5-min Rain = 0
KSC1 061621Z 17002KT 10/08 A302 RMK A01 T01010078  RH  086%=      5-min Rain = 0
KSC1 061622Z 19003KT 10/08 A302 RMK A01 T01010078  RH  085%=      5-min Rain = 0
KSC1 061623Z 20003KT 10/08 A302 RMK A01 T01010078  RH  085%=      5-min Rain = 0
KSC1 061624Z 21003KT 10/08 A302 RMK A01 T01010078  RH  085%=      5-min Rain = 0
KSC1 061625Z 21003KT 10/08 A302 RMK A01 T01010077  RH  085%=      5-min Rain = 0
KSC1 061626Z 22002KT 10/08 A302 RMK A01 T01000077  RH  086%=      5-min Rain = 0
KSC1 061627Z 19002KT 10/08 A302 RMK A01 T01000078  RH  086%=      5-min Rain = 0
KSC1 061628Z 24002KT 10/08 A302 RMK A01 T01010078  RH  086%=      5-min Rain = 0
KSC1 061629Z 16003KT 10/08 A302 RMK A01 T01010078  RH  085%=      5-min Rain = 0
KSC1 061630Z 19003KT 10/08 A302 RMK A01 T01020079  RH  086%=      5-min Rain = 0
KSC1 061631Z 20003KT 10/08 A302 RMK A01 T01020078  RH  085%=      5-min Rain = 0
KSC1 061632Z 20002KT 10/08 A302 RMK A01 T01020078  RH  085%=      5-min Rain = 0
KSC1 061633Z 21003KT 10/08 A302 RMK A01 T01010077  RH  085%=      5-min Rain = 0
KSC1 061634Z 23002KT 10/08 A302 RMK A01 T01010077  RH  085%=      5-min Rain = 0
KSC1 061635Z 21002KT 10/08 A302 RMK A01 T01010077  RH  085%=      5-min Rain = 0
KSC1 061636Z 22001KT 10/08 A302 RMK A01 T01000076  RH  085%=      5-min Rain = 0
KSC1 061637Z 24002KT 10/08 A302 RMK A01 T01000076  RH  085%=      5-min Rain = 0
KSC1 061638Z 26001KT 10/08 A302 RMK A01 T01000077  RH  085%=      5-min Rain = 0
KSC1 061639Z 18000KT 10/08 A302 RMK A01 T01000077  RH  085%=      5-min Rain = 0
KSC1 061640Z 19001KT 10/08 A302 RMK A01 T01010077  RH  085%=      5-min Rain = 0
KSC1 061641Z 19001KT 10/08 A302 RMK A01 T01010077  RH  085%=      5-min Rain = 0
KSC1 061642Z 20002KT 10/08 A302 RMK A01 T01020078  RH  085%=      5-min Rain = 0
KSC1 061643Z 22003KT 10/08 A302 RMK A01 T01020077  RH  084%=      5-min Rain = 0
KSC1 061644Z 20003KT 10/08 A302 RMK A01 T01020077  RH  084%=      5-min Rain = 0
KSC1 061645Z 20002KT 10/08 A302 RMK A01 T01010076  RH  085%=      5-min Rain = 0
KSC1 061646Z 19002KT 10/08 A302 RMK A01 T01010077  RH  085%=      5-min Rain = 0
KSC1 061647Z 20002KT 10/08 A302 RMK A01 T01010077  RH  085%=      5-min Rain = 0
KSC1 061648Z 16002KT 10/08 A302 RMK A01 T01020078  RH  085%=      5-min Rain = 0
KSC1 061649Z 21002KT 10/08 A302 RMK A01 T01020077  RH  085%=      5-min Rain = 0
KSC1 061650Z 25002KT 10/08 A302 RMK A01 T01020078  RH  085%=      5-min Rain = 0
KSC1 061651Z 24002KT 10/08 A302 RMK A01 T01020078  RH  085%=      5-min Rain = 0
KSC1 061652Z 25002KT 10/08 A302 RMK A01 T01030078  RH  084%=      5-min Rain = 0
KSC1 061653Z 26002KT 10/08 A302 RMK A01 T01030077  RH  084%=      5-min Rain = 0
KSC1 061654Z 27002KT 10/08 A302 RMK A01 T01030077  RH  084%=      5-min Rain = 0
KSC1 061655Z 27002KT 10/08 A302 RMK A01 T01030076  RH  083%=      5-min Rain = 0
KSC1 061656Z 28002KT 10/08 A302 RMK A01 T01030076  RH  083%=      5-min Rain = 0
KSC1 061657Z 29002KT 10/08 A302 RMK A01 T01030077  RH  084%=      5-min Rain = 0
KSC1 061658Z 30002KT 10/08 A302 RMK A01 T01030077  RH  084%=      5-min Rain = 0
KSC1 061659Z 32002KT 10/08 A302 RMK A01 T01030077  RH  084%=      5-min Rain = 0
KSC1 061700Z 33001KT 10/08 A302 RMK A01 T01030077  RH  084%=      5-min Rain = 0
KSC1 061701Z 30002KT 10/08 A302 RMK A01 T01030078  RH  084%=      5-min Rain = 0
KSC1 061702Z 26002KT 10/08 A302 RMK A01 T01030078  RH  084%=      5-min Rain = 0
KSC1 061703Z 27002KT 10/08 A302 RMK A01 T01040078  RH  084%=      5-min Rain = 0
KSC1 061704Z 29003KT 10/08 A302 RMK A01 T01040078  RH  084%=      5-min Rain = 0
KSC1 061705Z 30003KT 11/08 A302 RMK A01 T01050078  RH  084%=      5-min Rain = 0
KSC1 061706Z 28003KT 11/08 A302 RMK A01 T01050078  RH  083%=      5-min Rain = 0
KSC1 061707Z 28002KT 11/08 A302 RMK A01 T01050078  RH  083%=      5-min Rain = 0
KSC1 061708Z 31003KT 11/08 A302 RMK A01 T01050078  RH  083%=      5-min Rain = 0
KSC1 061709Z 33002KT 11/08 A302 RMK A01 T01050077  RH  083%=      5-min Rain = 0
KSC1 061710Z 32002KT 11/08 A302 RMK A01 T01050078  RH  083%=      5-min Rain = 0
KSC1 061711Z 30002KT 11/08 A302 RMK A01 T01060078  RH  083%=      5-min Rain = 0
KSC1 061712Z 30003KT 11/08 A302 RMK A01 T01050078  RH  083%=      5-min Rain = 0
KSC1 061713Z 32003KT 11/08 A302 RMK A01 T01050078  RH  083%=      5-min Rain = 0
KSC1 061714Z 33002KT 11/08 A302 RMK A01 T01060078  RH  083%=      5-min Rain = 0
KSC1 061715Z 34003KT 11/08 A302 RMK A01 T01050078  RH  083%=      5-min Rain = 0
KSC1 061716Z 33004KT 11/08 A302 RMK A01 T01060078  RH  083%=      5-min Rain = 0
KSC1 061717Z 33004KT 11/08 A302 RMK A01 T01060078  RH  083%=      5-min Rain = 0
KSC1 061718Z 34004KT 11/08 A302 RMK A01 T01050077  RH  083%=      5-min Rain = 0
KSC1 061719Z 34005KT 11/08 A302 RMK A01 T01050078  RH  083%=      5-min Rain = 0
KSC1 061720Z 34004KT 11/08 A302 RMK A01 T01050078  RH  083%=      5-min Rain = 0
KSC1 061721Z 33003KT 11/08 A302 RMK A01 T01050078  RH  084%=      5-min Rain = 0
KSC1 061722Z 32003KT 10/08 A302 RMK A01 T01040078  RH  084%=      5-min Rain = 0
KSC1 061723Z 33004KT 11/08 A302 RMK A01 T01050078  RH  084%=      5-min Rain = 0
KSC1 061724Z 32006KT 11/08 A302 RMK A01 T01060079  RH  083%=      5-min Rain = 0
KSC1 061725Z 32005KT 11/08 A302 RMK A01 T01060078  RH  083%=      5-min Rain = 0
KSC1 061726Z 31003KT 11/08 A302 RMK A01 T01060078  RH  083%=      5-min Rain = 0
KSC1 061727Z 32006KT 11/08 A302 RMK A01 T01060078  RH  083%=      5-min Rain = 0
KSC1 061728Z 32006KT 11/08 A302 RMK A01 T01070078  RH  082%=      5-min Rain = 0
KSC1 061729Z 32006KT 11/08 A302 RMK A01 T01070077  RH  082%=      5-min Rain = 0
KSC1 061730Z 31005KT 11/08 A302 RMK A01 T01070077  RH  082%=      5-min Rain = 0
KSC1 061731Z 32005KT 11/08 A302 RMK A01 T01070078  RH  082%=      5-min Rain = 0
KSC1 061732Z 33005KT 11/08 A302 RMK A01 T01060078  RH  083%=      5-min Rain = 0
KSC1 061733Z 34006KT 11/08 A302 RMK A01 T01070078  RH  083%=      5-min Rain = 0
KSC1 061734Z 34005KT 11/08 A302 RMK A01 T01070078  RH  082%=      5-min Rain = 0
KSC1 061735Z 34006KT 11/08 A3019 RMK A01 T01070078  RH  082%=      5-min Rain = 0
KSC1 061736Z 33005KT 11/08 A302 RMK A01 T01070078  RH  082%=      5-min Rain = 0
KSC1 061737Z 33004KT 11/08 A302 RMK A01 T01070077  RH  082%=      5-min Rain = 0
KSC1 061738Z 34004KT 11/08 A302 RMK A01 T01060077  RH  082%=      5-min Rain = 0
KSC1 061739Z 31002KT 11/08 A302 RMK A01 T01050078  RH  083%=      5-min Rain = 0
KSC1 061740Z 33003KT 11/08 A302 RMK A01 T01070079  RH  083%=      5-min Rain = 0
KSC1 061741Z 35003KT 11/08 A302 RMK A01 T01080079  RH  083%=      5-min Rain = 0
KSC1 061742Z 33005KT 11/08 A302 RMK A01 T01080079  RH  082%=      5-min Rain = 0
KSC1 061743Z 32005KT 11/08 A302 RMK A01 T01090078  RH  081%=      5-min Rain = 0
KSC1 061744Z 33005KT 11/08 A302 RMK A01 T01080078  RH  082%=      5-min Rain = 0
KSC1 061745Z 34004KT 11/08 A3019 RMK A01 T01080078  RH  082%=      5-min Rain = 0
KSC1 061746Z 34003KT 11/08 A3019 RMK A01 T01080078  RH  082%=      5-min Rain = 0
KSC1 061747Z 34003KT 11/08 A3019 RMK A01 T01070078  RH  082%=      5-min Rain = 0
KSC1 061748Z 01003KT 11/08 A3019 RMK A01 T01070078  RH  082%=      5-min Rain = 0
KSC1 061749Z 01004KT 11/08 A3019 RMK A01 T01080079  RH  082%=      5-min Rain = 0
KSC1 061750Z 00004KT 11/08 A3019 RMK A01 T01080079  RH  082%=      5-min Rain = 0
KSC1 061751Z 36004KT 11/08 A3019 RMK A01 T01090078  RH  081%=      5-min Rain = 0
KSC1 061752Z 33004KT 11/08 A3019 RMK A01 T01090078  RH  081%=      5-min Rain = 0
KSC1 061753Z 32005KT 11/08 A3019 RMK A01 T01090078  RH  081%=      5-min Rain = 0
KSC1 061754Z 31003KT 11/08 A302 RMK A01 T01090078  RH  081%=      5-min Rain = 0
KSC1 061755Z 33004KT 11/08 A302 RMK A01 T01090078  RH  081%=      5-min Rain = 0
KSC1 061756Z 35004KT 11/08 A3019 RMK A01 T01090077  RH  081%=      5-min Rain = 0
KSC1 061757Z 03003KT 11/08 A3019 RMK A01 T01080077  RH  081%=      5-min Rain = 0
KSC1 061758Z 03003KT 11/08 A3019 RMK A01 T01080077  RH  081%=      5-min Rain = 0
KSC1 061759Z 36003KT 11/08 A3019 RMK A01 T01080077  RH  081%=      5-min Rain = 0
KSC1 061800Z 35004KT 11/08 A3019 RMK A01 T01080078  RH  081%=      5-min Rain = 0
KSC1 061801Z 33004KT 11/08 A3019 RMK A01 T01090078  RH  081%=      5-min Rain = 0
KSC1 061802Z 34003KT 11/08 A3019 RMK A01 T01090078  RH  081%=      5-min Rain = 0
KSC1 061803Z 00004KT 11/08 A302 RMK A01 T01100079  RH  081%=      5-min Rain = 0
KSC1 061804Z 01003KT 11/08 A302 RMK A01 T01110079  RH  081%=      5-min Rain = 0
KSC1 061805Z 02003KT 11/08 A302 RMK A01 T01110079  RH  080%=      5-min Rain = 0
KSC1 061806Z 01003KT 11/08 A302 RMK A01 T01110078  RH  080%=      5-min Rain = 0
KSC1 061807Z 00004KT 11/08 A302 RMK A01 T01110078  RH  080%=      5-min Rain = 0
KSC1 061808Z 35003KT 11/08 A302 RMK A01 T01120078  RH  080%=      5-min Rain = 0
KSC1 061809Z 34004KT 11/08 A302 RMK A01 T01110077  RH  079%=      5-min Rain = 0
KSC1 061810Z 00003KT 11/08 A302 RMK A01 T01110077  RH  080%=      5-min Rain = 0
KSC1 061811Z 00004KT 11/08 A302 RMK A01 T01110078  RH  080%=      5-min Rain = 0
KSC1 061812Z 01003KT 11/08 A302 RMK A01 T01110077  RH  079%=      5-min Rain = 0
KSC1 061813Z 02003KT 11/08 A302 RMK A01 T01110077  RH  080%=      5-min Rain = 0
KSC1 061814Z 02003KT 11/08 A302 RMK A01 T01110077  RH  080%=      5-min Rain = 0
KSC1 061815Z 02003KT 11/08 A302 RMK A01 T01100076  RH  079%=      5-min Rain = 0
KSC1 061816Z 01003KT 11/08 A302 RMK A01 T01100077  RH  080%=      5-min Rain = 0
KSC1 061817Z 35002KT 11/08 A302 RMK A01 T01100076  RH  080%=      5-min Rain = 0
KSC1 061818Z 00002KT 11/08 A302 RMK A01 T01100077  RH  080%=      5-min Rain = 0
KSC1 061819Z 34001KT 11/08 A302 RMK A01 T01100077  RH  080%=      5-min Rain = 0
KSC1 061820Z 01002KT 11/08 A302 RMK A01 T01110077  RH  080%=      5-min Rain = 0
KSC1 061821Z 36003KT 11/08 A302 RMK A01 T01100077  RH  080%=      5-min Rain = 0
KSC1 061822Z 36003KT 11/08 A302 RMK A01 T01110078  RH  080%=      5-min Rain = 0
KSC1 061823Z 34003KT 11/08 A302 RMK A01 T01110077  RH  080%=      5-min Rain = 0
KSC1 061824Z 35002KT 11/08 A3019 RMK A01 T01110077  RH  080%=      5-min Rain = 0
KSC1 061825Z 33001KT 11/08 A3019 RMK A01 T01110077  RH  080%=      5-min Rain = 0
KSC1 061826Z 03002KT 11/08 A3019 RMK A01 T01110078  RH  080%=      5-min Rain = 0
KSC1 061827Z 02002KT 11/08 A3019 RMK A01 T01110077  RH  080%=      5-min Rain = 0
KSC1 061828Z 00001KT 11/08 A3019 RMK A01 T01110077  RH  079%=      5-min Rain = 0
KSC1 061829Z 03002KT 11/08 A3019 RMK A01 T01110076  RH  079%=      5-min Rain = 0
KSC1 061830Z 03002KT 11/08 A3019 RMK A01 T01110076  RH  079%=      5-min Rain = 0
KSC1 061831Z 03002KT 11/08 A3019 RMK A01 T01120077  RH  079%=      5-min Rain = 0
KSC1 061832Z 01004KT 11/08 A3019 RMK A01 T01120077  RH  079%=      5-min Rain = 0
KSC1 061833Z 36003KT 11/08 A3019 RMK A01 T01120077  RH  079%=      5-min Rain = 0
KSC1 061834Z 36004KT 11/08 A3019 RMK A01 T01120076  RH  079%=      5-min Rain = 0
KSC1 061835Z 00004KT 11/08 A3019 RMK A01 T01130077  RH  079%=      5-min Rain = 0
KSC1 061836Z 36004KT 11/08 A3019 RMK A01 T01130077  RH  079%=      5-min Rain = 0
KSC1 061837Z 33005KT 11/08 A3019 RMK A01 T01140078  RH  078%=      5-min Rain = 0
KSC1 061838Z 33005KT 11/08 A3019 RMK A01 T01140077  RH  078%=      5-min Rain = 0
KSC1 061839Z 32005KT 11/08 A3019 RMK A01 T01140077  RH  078%=      5-min Rain = 0
KSC1 061840Z 32006KT 11/08 A3019 RMK A01 T01140078  RH  078%=      5-min Rain = 0
KSC1 061841Z 33007KT 11/08 A3019 RMK A01 T01140077  RH  078%=      5-min Rain = 0
KSC1 061842Z 33009KT 11/08 A3019 RMK A01 T01130077  RH  078%=      5-min Rain = 0
KSC1 061843Z 33007KT 11/08 A3019 RMK A01 T01120076  RH  079%=      5-min Rain = 0
KSC1 061844Z 33008KT 11/08 A3018 RMK A01 T01110077  RH  079%=      5-min Rain = 0
KSC1 061845Z 34007KT 11/08 A3018 RMK A01 T01110076  RH  079%=      5-min Rain = 0
KSC1 061846Z 35008KT 11/08 A3018 RMK A01 T01120077  RH  079%=      5-min Rain = 0
KSC1 061847Z 34008KT 11/08 A3018 RMK A01 T01110076  RH  079%=      5-min Rain = 0
KSC1 061848Z 34006KT 11/08 A3018 RMK A01 T01110076  RH  079%=      5-min Rain = 0
KSC1 061849Z 34006KT 11/08 A3018 RMK A01 T01120077  RH  079%=      5-min Rain = 0
KSC1 061850Z 34007KT 11/08 A3018 RMK A01 T01130076  RH  078%=      5-min Rain = 0
KSC1 061851Z 34007KT 11/08 A3018 RMK A01 T01130076  RH  078%=      5-min Rain = 0
KSC1 061852Z 35008KT 11/08 A3018 RMK A01 T01130076  RH  078%=      5-min Rain = 0
KSC1 061853Z 36007KT 11/08 A3018 RMK A01 T01130076  RH  078%=      5-min Rain = 0
KSC1 061854Z 35007KT 11/08 A3018 RMK A01 T01130076  RH  078%=      5-min Rain = 0
KSC1 061855Z 34007KT 11/08 A3018 RMK A01 T01130076  RH  078%=      5-min Rain = 0
KSC1 061856Z 34008KT 11/08 A3018 RMK A01 T01140076  RH  078%=      5-min Rain = 0
KSC1 061857Z 34007KT 11/08 A3018 RMK A01 T01140076  RH  077%=      5-min Rain = 0
KSC1 061858Z 34009KT 11/08 A3018 RMK A01 T01140077  RH  078%=      5-min Rain = 0
KSC1 061859Z 33006KT 11/08 A3018 RMK A01 T01140076  RH  078%=      5-min Rain = 0
KSC1 061900Z 33007KT 11/08 A3017 RMK A01 T01140077  RH  078%=      5-min Rain = 0
KSC1 061901Z 35007KT 12/08 A3017 RMK A01 T01150077  RH  077%=      5-min Rain = 0
KSC1 061902Z 34007KT 12/08 A3017 RMK A01 T01160077  RH  077%=      5-min Rain = 0
KSC1 061903Z 35006KT 12/08 A3017 RMK A01 T01160077  RH  077%=      5-min Rain = 0
KSC1 061904Z 34008KT 12/08 A3017 RMK A01 T01150076  RH  077%=      5-min Rain = 0
KSC1 061905Z 34008KT 12/08 A3017 RMK A01 T01150076  RH  077%=      5-min Rain = 0
KSC1 061906Z 35009KT 12/08 A3017 RMK A01 T01150076  RH  077%=      5-min Rain = 0
KSC1 061907Z 34008KT 12/08 A3017 RMK A01 T01150076  RH  077%=      5-min Rain = 0
KSC1 061908Z 34007KT 12/08 A3017 RMK A01 T01150076  RH  077%=      5-min Rain = 0
KSC1 061909Z 33008KT 12/08 A3017 RMK A01 T01150076  RH  077%=      5-min Rain = 0
KSC1 061910Z 34005KT 12/08 A3017 RMK A01 T01160077  RH  077%=      5-min Rain = 0
KSC1 061911Z 33007KT 12/08 A3017 RMK A01 T01180078  RH  077%=      5-min Rain = 0
KSC1 061912Z 34007KT 12/08 A3017 RMK A01 T01190077  RH  075%=      5-min Rain = 0
KSC1 061913Z 34006KT 12/08 A3017 RMK A01 T01190077  RH  076%=      5-min Rain = 0
KSC1 061914Z 35007KT 12/08 A3017 RMK A01 T01190077  RH  075%=      5-min Rain = 0
KSC1 061915Z 34006KT 12/08 A3017 RMK A01 T01190076  RH  075%=      5-min Rain = 0
KSC1 061916Z 32007KT 12/08 A3017 RMK A01 T01190076  RH  075%=      5-min Rain = 0
KSC1 061917Z 33008KT 12/08 A3017 RMK A01 T01190077  RH  076%=      5-min Rain = 0
KSC1 061918Z 33009KT 12/08 A3017 RMK A01 T01190076  RH  075%=      5-min Rain = 0
KSC1 061919Z 34008KT 12/08 A3017 RMK A01 T01190076  RH  075%=      5-min Rain = 0
KSC1 061920Z 35006KT 12/08 A3017 RMK A01 T01180077  RH  076%=      5-min Rain = 0
KSC1 061921Z 34007KT 12/08 A3016 RMK A01 T01190077  RH  075%=      5-min Rain = 0
KSC1 061922Z 34009KT 12/08 A3016 RMK A01 T01200077  RH  075%=      5-min Rain = 0
KSC1 061923Z 35009KT 12/08 A3016 RMK A01 T01190076  RH  075%=      5-min Rain = 0
KSC1 061924Z 34008KT 12/08 A3016 RMK A01 T01190076  RH  075%=      5-min Rain = 0
KSC1 061925Z 35006KT 12/08 A3016 RMK A01 T01180076  RH  075%=      5-min Rain = 0
KSC1 061926Z 35009KT 12/08 A3016 RMK A01 T01190077  RH  075%=      5-min Rain = 0
KSC1 061927Z 36009KT 12/08 A3016 RMK A01 T01190076  RH  075%=      5-min Rain = 0
KSC1 061928Z 36007KT 12/08 A3016 RMK A01 T01170075  RH  075%=      5-min Rain = 0
KSC1 061929Z 00006KT 12/08 A3016 RMK A01 T01170076  RH  076%=      5-min Rain = 0
KSC1 061930Z 36006KT 12/08 A3016 RMK A01 T01170076  RH  076%=      5-min Rain = 0
KSC1 061931Z 35007KT 12/08 A3016 RMK A01 T01170076  RH  076%=      5-min Rain = 0
KSC1 061932Z 35008KT 12/08 A3016 RMK A01 T01170076  RH  076%=      5-min Rain = 0
KSC1 061933Z 00007KT 12/08 A3015 RMK A01 T01170076  RH  076%=      5-min Rain = 0
KSC1 061934Z 00007KT 12/08 A3015 RMK A01 T01170076  RH  076%=      5-min Rain = 0
KSC1 061935Z 36009KT 12/08 A3015 RMK A01 T01170076  RH  076%=      5-min Rain = 0
KSC1 061936Z 34008KT 12/08 A3016 RMK A01 T01170075  RH  076%=      5-min Rain = 0
KSC1 061937Z 36006KT 12/08 A3016 RMK A01 T01170076  RH  076%=      5-min Rain = 0
KSC1 061938Z 35006KT 12/08 A3016 RMK A01 T01170077  RH  076%=      5-min Rain = 0
KSC1 061939Z 35006KT 12/08 A3016 RMK A01 T01180076  RH  076%=      5-min Rain = 0
KSC1 061940Z 35007KT 12/08 A3016 RMK A01 T01180076  RH  076%=      5-min Rain = 0
KSC1 061941Z 36006KT 12/08 A3016 RMK A01 T01180076  RH  076%=      5-min Rain = 0
KSC1 061942Z 01007KT 12/08 A3016 RMK A01 T01180076  RH  076%=      5-min Rain = 0
KSC1 061943Z 35008KT 12/08 A3015 RMK A01 T01190077  RH  075%=      5-min Rain = 0
KSC1 061944Z 36007KT 12/08 A3015 RMK A01 T01190076  RH  075%=      5-min Rain = 0
KSC1 061945Z 00004KT 12/08 A3015 RMK A01 T01180077  RH  076%=      5-min Rain = 0
KSC1 061946Z 01006KT 12/08 A3015 RMK A01 T01190078  RH  076%=      5-min Rain = 0
KSC1 061947Z 36006KT 12/08 A3015 RMK A01 T01200078  RH  075%=      5-min Rain = 0
KSC1 061948Z 00007KT 12/08 A3015 RMK A01 T01210078  RH  075%=      5-min Rain = 0
KSC1 061949Z 01007KT 12/08 A3015 RMK A01 T01210077  RH  075%=      5-min Rain = 0
KSC1 061950Z 02006KT 12/08 A3015 RMK A01 T01210078  RH  075%=      5-min Rain = 0
KSC1 061951Z 01006KT 12/08 A3015 RMK A01 T01200077  RH  075%=      5-min Rain = 0
KSC1 061952Z 01006KT 12/08 A3015 RMK A01 T01190078  RH  076%=      5-min Rain = 0
KSC1 061953Z 00006KT 12/08 A3015 RMK A01 T01200078  RH  076%=      5-min Rain = 0
KSC1 061954Z 36006KT 12/08 A3015 RMK A01 T01200078  RH  076%=      5-min Rain = 0
KSC1 061955Z 35008KT 12/08 A3015 RMK A01 T01190077  RH  075%=      5-min Rain = 0
KSC1 061956Z 01008KT 12/08 A3015 RMK A01 T01180077  RH  076%=      5-min Rain = 0
KSC1 061957Z 03008KT 12/08 A3015 RMK A01 T01180078  RH  076%=      5-min Rain = 0
KSC1 061958Z 03007KT 12/08 A3015 RMK A01 T01180077  RH  076%=      5-min Rain = 0
KSC1 061959Z 01006KT 12/08 A3015 RMK A01 T01180077  RH  076%=      5-min Rain = 0
KSC1 062000Z 01005KT 12/08 A3015 RMK A01 T01170077  RH  076%=      5-min Rain = 0
KSC1 062001Z 01007KT 12/08 A3015 RMK A01 T01180077  RH  076%=      5-min Rain = 0
KSC1 062002Z 01005KT 12/08 A3015 RMK A01 T01180077  RH  076%=      5-min Rain = 0
KSC1 062003Z 01008KT 12/08 A3015 RMK A01 T01170077  RH  076%=      5-min Rain = 0
KSC1 062004Z 01006KT 12/08 A3015 RMK A01 T01170077  RH  076%=      5-min Rain = 0
KSC1 062005Z 02007KT 12/08 A3015 RMK A01 T01170077  RH  077%=      5-min Rain = 0
KSC1 062006Z 02006KT 12/08 A3015 RMK A01 T01160076  RH  077%=      5-min Rain = 0
KSC1 062007Z 02007KT 12/08 A3015 RMK A01 T01150076  RH  077%=      5-min Rain = 0
KSC1 062008Z 03007KT 12/08 A3015 RMK A01 T01150077  RH  077%=      5-min Rain = 0
KSC1 062009Z 02007KT 12/08 A3015 RMK A01 T01150076  RH  077%=      5-min Rain = 0
KSC1 062010Z 02007KT 12/08 A3015 RMK A01 T01150076  RH  077%=      5-min Rain = 0
KSC1 062011Z 02007KT 12/08 A3015 RMK A01 T01150077  RH  077%=      5-min Rain = 0
KSC1 062012Z 02006KT 12/08 A3015 RMK A01 T01150077  RH  077%=      5-min Rain = 0
KSC1 062013Z 02007KT 12/08 A3015 RMK A01 T01150077  RH  078%=      5-min Rain = 0
KSC1 062014Z 02008KT 11/08 A3015 RMK A01 T01140076  RH  077%=      5-min Rain = 0
KSC1 062015Z 03006KT 11/08 A3015 RMK A01 T01140076  RH  077%=      5-min Rain = 0
KSC1 062016Z 03006KT 12/08 A3015 RMK A01 T01150076  RH  077%=      5-min Rain = 0
KSC1 062017Z 02006KT 12/08 A3015 RMK A01 T01150076  RH  077%=      5-min Rain = 0
KSC1 062018Z 01008KT 12/08 A3015 RMK A01 T01160076  RH  076%=      5-min Rain = 0
KSC1 062019Z 02007KT 12/08 A3015 RMK A01 T01160075  RH  076%=      5-min Rain = 0
KSC1 062020Z 03006KT 12/08 A3015 RMK A01 T01160076  RH  076%=      5-min Rain = 0
KSC1 062021Z 04006KT 12/08 A3015 RMK A01 T01160076  RH  077%=      5-min Rain = 0
KSC1 062022Z 03007KT 12/08 A3015 RMK A01 T01160076  RH  077%=      5-min Rain = 0
KSC1 062023Z 03007KT 12/08 A3015 RMK A01 T01160077  RH  077%=      5-min Rain = 0
KSC1 062024Z 05008KT 12/08 A3015 RMK A01 T01160077  RH  077%=      5-min Rain = 0
KSC1 062025Z 05008KT 12/08 A3015 RMK A01 T01150077  RH  077%=      5-min Rain = 0
KSC1 062026Z 06007KT 11/08 A3015 RMK A01 T01140077  RH  078%=      5-min Rain = 0
KSC1 062027Z 05009KT 11/08 A3016 RMK A01 T01130076  RH  078%=      5-min Rain = 0
KSC1 062028Z 05006KT 11/08 A3016 RMK A01 T01130076  RH  078%=      5-min Rain = 0
KSC1 062029Z 04007KT 11/08 A3016 RMK A01 T01130077  RH  079%=      5-min Rain = 0
KSC1 062030Z 04009KT 11/08 A3016 RMK A01 T01130077  RH  079%=      5-min Rain = 0
KSC1 062031Z 04009KT 11/08 A3016 RMK A01 T01130077  RH  079%=      5-min Rain = 0
KSC1 062032Z 03007KT 11/08 A3016 RMK A01 T01120077  RH  079%=      5-min Rain = 0
KSC1 062033Z 04008KT 11/08 A3016 RMK A01 T01120077  RH  079%=      5-min Rain = 0
KSC1 062034Z 03010KT 11/08 A3016 RMK A01 T01110077  RH  079%=      5-min Rain = 0
KSC1 062035Z 03008KT 11/08 A3016 RMK A01 T01110077  RH  080%=      5-min Rain = 0
KSC1 062036Z 03007KT 11/08 A3016 RMK A01 T01110077  RH  080%=      5-min Rain = 0
KSC1 062037Z 03007KT 11/08 A3016 RMK A01 T01110077  RH  080%=      5-min Rain = 0
KSC1 062038Z 02006KT 11/08 A3016 RMK A01 T01110077  RH  080%=      5-min Rain = 0
KSC1 062039Z 02007KT 11/08 A3016 RMK A01 T01110077  RH  079%=      5-min Rain = 0
KSC1 062040Z 03007KT 11/08 A3016 RMK A01 T01110076  RH  079%=      5-min Rain = 0
KSC1 062041Z 03008KT 11/08 A3016 RMK A01 T01110076  RH  079%=      5-min Rain = 0
KSC1 062042Z 02008KT 11/08 A3016 RMK A01 T01110076  RH  079%=      5-min Rain = 0
KSC1 062043Z 02006KT 11/08 A3016 RMK A01 T01110077  RH  079%=      5-min Rain = 0
KSC1 062044Z 03006KT 11/08 A3016 RMK A01 T01110077  RH  079%=      5-min Rain = 0
KSC1 062045Z 02005KT 11/08 A3016 RMK A01 T01120077  RH  079%=      5-min Rain = 0
KSC1 062046Z 02007KT 11/08 A3016 RMK A01 T01120078  RH  079%=      5-min Rain = 0
KSC1 062047Z 03007KT 11/08 A3016 RMK A01 T01120078  RH  079%=      5-min Rain = 0
KSC1 062048Z 03006KT 11/08 A3016 RMK A01 T01120078  RH  079%=      5-min Rain = 0
KSC1 062049Z 03006KT 11/08 A3017 RMK A01 T01120079  RH  080%=      5-min Rain = 0
KSC1 062050Z 03007KT 11/08 A3017 RMK A01 T01120079  RH  080%=      5-min Rain = 0
KSC1 062051Z 04009KT 11/08 A3017 RMK A01 T01120078  RH  080%=      5-min Rain = 0
KSC1 062052Z 02008KT 11/08 A3017 RMK A01 T01120078  RH  080%=      5-min Rain = 0
KSC1 062053Z 02006KT 11/08 A3017 RMK A01 T01110078  RH  080%=      5-min Rain = 0
KSC1 062054Z 03006KT 11/08 A3017 RMK A01 T01110078  RH  080%=      5-min Rain = 0
KSC1 062055Z 00004KT 11/08 A3017 RMK A01 T01110078  RH  081%=      5-min Rain = 0
KSC1 062056Z 01007KT 11/08 A3017 RMK A01 T01110079  RH  081%=      5-min Rain = 0
KSC1 062057Z 01008KT 11/08 A3017 RMK A01 T01120078  RH  080%=      5-min Rain = 0
KSC1 062058Z 00007KT 11/08 A3017 RMK A01 T01110078  RH  080%=      5-min Rain = 0
KSC1 062059Z 01008KT 11/08 A3017 RMK A01 T01110079  RH  081%=      5-min Rain = 0
KSC1 062100Z 01007KT 11/08 A3017 RMK A01 T01110079  RH  081%=      5-min Rain = 0
KSC1 062101Z 01008KT 11/08 A3017 RMK A01 T01110079  RH  081%=      5-min Rain = 0
KSC1 062102Z 01006KT 11/08 A3017 RMK A01 T01110079  RH  081%=      5-min Rain = 0
KSC1 062103Z 00008KT 11/08 A3017 RMK A01 T01110080  RH  081%=      5-min Rain = 0
KSC1 062104Z 01006KT 11/08 A3017 RMK A01 T01110080  RH  081%=      5-min Rain = 0
KSC1 062105Z 01009KT 11/08 A3017 RMK A01 T01110080  RH  081%=      5-min Rain = 0
KSC1 062106Z 03009KT 11/08 A3017 RMK A01 T01110080  RH  081%=      5-min Rain = 0
KSC1 062107Z 02007KT 11/08 A3017 RMK A01 T01100080  RH  082%=      5-min Rain = 0
KSC1 062108Z 02007KT 11/08 A3016 RMK A01 T01100081  RH  082%=      5-min Rain = 0
KSC1 062109Z 01008KT 11/08 A3016 RMK A01 T01100081  RH  082%=      5-min Rain = 0
KSC1 062110Z 01007KT 11/08 A3016 RMK A01 T01100081  RH  082%=      5-min Rain = 0
KSC1 062111Z 02009KT 11/08 A3016 RMK A01 T01100081  RH  082%=      5-min Rain = 0
KSC1 062112Z 02009KT 11/08 A3016 RMK A01 T01100081  RH  082%=      5-min Rain = 0
KSC1 062113Z 02009KT 11/08 A3016 RMK A01 T01100081  RH  082%=      5-min Rain = 0
KSC1 062114Z 02007KT 11/08 A3016 RMK A01 T01100081  RH  083%=      5-min Rain = 0
KSC1 062115Z 02007KT 11/08 A3016 RMK A01 T01100081  RH  082%=      5-min Rain = 0
KSC1 062116Z 02006KT 11/08 A3016 RMK A01 T01110081  RH  082%=      5-min Rain = 0
KSC1 062117Z 01004KT 11/08 A3016 RMK A01 T01110082  RH  082%=      5-min Rain = 0
KSC1 062118Z 01008KT 11/08 A3016 RMK A01 T01120082  RH  082%=      5-min Rain = 0
KSC1 062119Z 00007KT 11/08 A3017 RMK A01 T01120081  RH  081%=      5-min Rain = 0
KSC1 062120Z 01006KT 11/08 A3017 RMK A01 T01120082  RH  082%=      5-min Rain = 0
KSC1 062121Z 01008KT 11/08 A3017 RMK A01 T01120081  RH  082%=      5-min Rain = 0
KSC1 062122Z 35006KT 11/08 A3017 RMK A01 T01120081  RH  081%=      5-min Rain = 0
KSC1 062123Z 00008KT 11/08 A3017 RMK A01 T01120081  RH  082%=      5-min Rain = 0
KSC1 062124Z 01005KT 11/08 A3017 RMK A01 T01120081  RH  081%=      5-min Rain = 0
KSC1 062125Z 01007KT 11/08 A3017 RMK A01 T01120082  RH  082%=      5-min Rain = 0
KSC1 062126Z 01006KT 11/08 A3017 RMK A01 T01120082  RH  082%=      5-min Rain = 0
KSC1 062127Z 00005G10KT 11/08 A3017 RMK A01 T01130082  RH  082%=      5-min Rain = 0
KSC1 062128Z 35007KT 11/08 A3017 RMK A01 T01130082  RH  081%=      5-min Rain = 0
KSC1 062129Z 00008KT 11/08 A3017 RMK A01 T01130081  RH  081%=      5-min Rain = 0
KSC1 062130Z 00008KT 11/08 A3017 RMK A01 T01120081  RH  081%=      5-min Rain = 0
KSC1 062131Z 00008KT 11/08 A3017 RMK A01 T01120082  RH  081%=      5-min Rain = 0
KSC1 062132Z 00007KT 11/08 A3017 RMK A01 T01120081  RH  082%=      5-min Rain = 0
KSC1 062133Z 01005KT 11/08 A3017 RMK A01 T01120082  RH  082%=      5-min Rain = 0
KSC1 062134Z 36007KT 11/08 A3017 RMK A01 T01120081  RH  082%=      5-min Rain = 0
KSC1 062135Z 01007G13KT 11/08 A3017 RMK A01 T01120081  RH  081%=      5-min Rain = 0
KSC1 062136Z 35010KT 11/07 A3017 RMK A01 T01110074  RH  078%=      5-min Rain = 0
KSC1 062137Z 35011KT 11/06 A3017 RMK A01 T01080057  RH  071%=      5-min Rain = 0
KSC1 062138Z 36012KT 10/05 A3017 RMK A01 T01020046  RH  068%=      5-min Rain = 0
KSC1 062139Z 35010KT 10/04 A3017 RMK A01 T00990044  RH  069%=      5-min Rain = 0
KSC1 062140Z 35011KT 10/04 A3017 RMK A01 T00970043  RH  069%=      5-min Rain = 0
KSC1 062141Z 35009KT 10/04 A3017 RMK A01 T00960041  RH  069%=      5-min Rain = 0
KSC1 062142Z 36010KT 10/04 A3017 RMK A01 T00950042  RH  069%=      5-min Rain = 0
KSC1 062143Z 36009G14KT 10/04 A3018 RMK A01 T00950041  RH  069%=      5-min Rain = 0
KSC1 062144Z 00011G17KT 10/04 A3018 RMK A01 T00950041  RH  069%=      5-min Rain = 0
KSC1 062145Z 01013KT 09/04 A3018 RMK A01 T00940041  RH  070%=      5-min Rain = 0
KSC1 062146Z 00010KT 09/04 A3018 RMK A01 T00930041  RH  070%=      5-min Rain = 0
KSC1 062147Z 36010KT 09/04 A3018 RMK A01 T00920041  RH  070%=      5-min Rain = 0
KSC1 062148Z 35008KT 09/04 A3018 RMK A01 T00920041  RH  070%=      5-min Rain = 0
KSC1 062149Z 36009KT 09/04 A3018 RMK A01 T00920040  RH  070%=      5-min Rain = 0
KSC1 062150Z 35008KT 09/04 A3018 RMK A01 T00910039  RH  070%=      5-min Rain = 0
KSC1 062151Z 36010KT 09/04 A3018 RMK A01 T00910039  RH  070%=      5-min Rain = 0
KSC1 062152Z 34010KT 09/04 A3018 RMK A01 T00910039  RH  070%=      5-min Rain = 0
KSC1 062153Z 35009KT 09/04 A3018 RMK A01 T00900039  RH  070%=      5-min Rain = 0
KSC1 062154Z 35010KT 09/04 A3018 RMK A01 T00900039  RH  071%=      5-min Rain = 0
KSC1 062155Z 35007KT 09/04 A3018 RMK A01 T00890040  RH  071%=      5-min Rain = 0
KSC1 062156Z 35012KT 09/04 A3018 RMK A01 T00890040  RH  071%=      5-min Rain = 0
KSC1 062157Z 35011KT 09/04 A3018 RMK A01 T00880038  RH  071%=      5-min Rain = 0
KSC1 062158Z 36011KT 09/04 A3018 RMK A01 T00870037  RH  071%=      5-min Rain = 0
KSC1 062159Z 35009G14KT 09/04 A3018 RMK A01 T00870036  RH  070%=      5-min Rain = 0
KSC1 062200Z 36010KT 09/04 A3018 RMK A01 T00860036  RH  071%=      5-min Rain = 0
KSC1 062201Z 00010KT 09/04 A3018 RMK A01 T00860036  RH  071%=      5-min Rain = 0
KSC1 062202Z 36007G12KT 09/04 A3018 RMK A01 T00860035  RH  071%=      5-min Rain = 0
KSC1 062203Z 34009KT 09/04 A3019 RMK A01 T00860035  RH  071%=      5-min Rain = 0
KSC1 062204Z 35010KT 09/03 A3019 RMK A01 T00850034  RH  070%=      5-min Rain = 0
KSC1 062205Z 34009KT 09/03 A3019 RMK A01 T00850034  RH  071%=      5-min Rain = 0
KSC1 062206Z 35008KT 08/03 A3019 RMK A01 T00840034  RH  071%=      5-min Rain = 0
KSC1 062207Z 35006KT 08/03 A3019 RMK A01 T00840034  RH  071%=      5-min Rain = 0
KSC1 062208Z 35006KT 08/03 A3019 RMK A01 T00840033  RH  071%=      5-min Rain = 0
KSC1 062209Z 35007G12KT 08/03 A3019 RMK A01 T00840033  RH  070%=      5-min Rain = 0
KSC1 062210Z 35008G13KT 08/03 A3019 RMK A01 T00840031  RH  070%=      5-min Rain = 0
KSC1 062211Z 36009KT 08/03 A3019 RMK A01 T00840030  RH  069%=      5-min Rain = 0
KSC1 062212Z 35008KT 08/03 A3019 RMK A01 T00830029  RH  069%=      5-min Rain = 0
KSC1 062213Z 35010KT 08/03 A3019 RMK A01 T00830028  RH  068%=      5-min Rain = 0
KSC1 062214Z 35010KT 08/03 A3019 RMK A01 T00830027  RH  068%=      5-min Rain = 0
KSC1 062215Z 35011KT 08/03 A3019 RMK A01 T00830026  RH  067%=      5-min Rain = 0
KSC1 062216Z 35009KT 08/03 A3019 RMK A01 T00820025  RH  067%=      5-min Rain = 0
KSC1 062217Z 34007KT 08/03 A3019 RMK A01 T00830025  RH  067%=      5-min Rain = 0
KSC1 062218Z 35011KT 08/02 A3019 RMK A01 T00820024  RH  067%=      5-min Rain = 0
KSC1 062219Z 35011KT 08/02 A3019 RMK A01 T00820023  RH  066%=      5-min Rain = 0
KSC1 062220Z 36011KT 08/02 A3019 RMK A01 T00820022  RH  066%=      5-min Rain = 0
KSC1 062221Z 35007KT 08/02 A3019 RMK A01 T00810021  RH  066%=      5-min Rain = 0
KSC1 062222Z 35009KT 08/02 A3019 RMK A01 T00810021  RH  066%=      5-min Rain = 0
KSC1 062223Z 36008KT 08/02 A3019 RMK A01 T00810021  RH  066%=      5-min Rain = 0
KSC1 062224Z 00006KT 08/02 A302 RMK A01 T00810021  RH  066%=      5-min Rain = 0
KSC1 062225Z 00008KT 08/02 A302 RMK A01 T00800021  RH  066%=      5-min Rain = 0
KSC1 062226Z 01008KT 08/02 A302 RMK A01 T00800021  RH  066%=      5-min Rain = 0
KSC1 062227Z 01005KT 08/02 A302 RMK A01 T00810021  RH  066%=      5-min Rain = 0
KSC1 062228Z 01004KT 08/02 A302 RMK A01 T00810022  RH  066%=      5-min Rain = 0
KSC1 062229Z 00005KT 08/02 A302 RMK A01 T00810023  RH  067%=      5-min Rain = 0
KSC1 062230Z 00007G12KT 08/02 A302 RMK A01 T00800024  RH  068%=      5-min Rain = 0
KSC1 062231Z 36010KT 08/03 A302 RMK A01 T00800026  RH  068%=      5-min Rain = 0
KSC1 062232Z 00009KT 08/03 A302 RMK A01 T00790026  RH  069%=      5-min Rain = 0
KSC1 062233Z 01011KT 08/03 A302 RMK A01 T00780027  RH  070%=      5-min Rain = 0
KSC1 062234Z 01009KT 08/03 A302 RMK A01 T00770027  RH  070%=      5-min Rain = 0
KSC1 062235Z 36010KT 08/03 A302 RMK A01 T00760027  RH  071%=      5-min Rain = 0
KSC1 062236Z 01009KT 08/03 A302 RMK A01 T00760026  RH  071%=      5-min Rain = 0
KSC1 062237Z 02008KT 08/03 A302 RMK A01 T00750025  RH  071%=      5-min Rain = 0
KSC1 062238Z 01009KT 08/03 A302 RMK A01 T00750025  RH  071%=      5-min Rain = 0
KSC1 062239Z 01009KT 08/03 A302 RMK A01 T00750025  RH  071%=      5-min Rain = 0
KSC1 062240Z 01008KT 07/03 A3021 RMK A01 T00740025  RH  071%=      5-min Rain = 0
KSC1 062241Z 00008KT 07/03 A3021 RMK A01 T00740025  RH  071%=      5-min Rain = 0
KSC1 062242Z 00008KT 07/03 A3021 RMK A01 T00740025  RH  071%=      5-min Rain = 0
KSC1 062243Z 01007KT 07/02 A3021 RMK A01 T00740024  RH  071%=      5-min Rain = 0
KSC1 062244Z 01007KT 07/02 A3021 RMK A01 T00730024  RH  071%=      5-min Rain = 0
KSC1 062245Z 01008KT 07/02 A3021 RMK A01 T00730024  RH  071%=      5-min Rain = 0
KSC1 062246Z 00010KT 07/02 A3021 RMK A01 T00720024  RH  071%=      5-min Rain = 0
KSC1 062247Z 01008KT 07/02 A3021 RMK A01 T00720024  RH  071%=      5-min Rain = 0
KSC1 062248Z 01011KT 07/02 A3021 RMK A01 T00720024  RH  071%=      5-min Rain = 0
KSC1 062249Z 01008KT 07/02 A3021 RMK A01 T00720023  RH  071%=      5-min Rain = 0
KSC1 062250Z 01009KT 07/02 A3021 RMK A01 T00710024  RH  072%=      5-min Rain = 0
KSC1 062251Z 01008KT 07/02 A3021 RMK A01 T00710024  RH  072%=      5-min Rain = 0
KSC1 062252Z 35010KT 07/02 A3021 RMK A01 T00700024  RH  072%=      5-min Rain = 0
KSC1 062253Z 36011KT 07/02 A3021 RMK A01 T00700024  RH  072%=      5-min Rain = 0
KSC1 062254Z 36010KT 07/02 A3021 RMK A01 T00700023  RH  072%=      5-min Rain = 0
KSC1 062255Z 36009G14KT 07/02 A3021 RMK A01 T00700023  RH  072%=      5-min Rain = 0
KSC1 062256Z 36008KT 07/02 A3021 RMK A01 T00700023  RH  072%=      5-min Rain = 0
KSC1 062257Z 01008KT 07/02 A3021 RMK A01 T00700023  RH  072%=      5-min Rain = 0
KSC1 062258Z 35008KT 07/02 A3021 RMK A01 T00690023  RH  072%=      5-min Rain = 0
KSC1 062259Z 00008KT 07/02 A3021 RMK A01 T00690023  RH  072%=      5-min Rain = 0
KSC1 062300Z 00008KT 07/02 A3021 RMK A01 T00700023  RH  072%=      5-min Rain = 0
KSC1 062301Z 02005KT 07/02 A3021 RMK A01 T00690023  RH  072%=      5-min Rain = 0
KSC1 062302Z 00005KT 07/02 A3022 RMK A01 T00690023  RH  072%=      5-min Rain = 0
KSC1 062303Z 36008KT 07/02 A3022 RMK A01 T00700023  RH  072%=      5-min Rain = 0
KSC1 062304Z 00010KT 07/02 A3022 RMK A01 T00700022  RH  072%=      5-min Rain = 0
KSC1 062305Z 01007KT 07/02 A3022 RMK A01 T00690022  RH  072%=      5-min Rain = 0
KSC1 062306Z 36009KT 07/02 A3022 RMK A01 T00690022  RH  072%=      5-min Rain = 0
KSC1 062307Z 36009KT 07/02 A3022 RMK A01 T00690021  RH  072%=      5-min Rain = 0
KSC1 062308Z 36007KT 07/02 A3022 RMK A01 T00680021  RH  072%=      5-min Rain = 0
KSC1 062309Z 35007KT 07/02 A3022 RMK A01 T00680021  RH  072%=      5-min Rain = 0
KSC1 062310Z 35008KT 07/02 A3022 RMK A01 T00680021  RH  072%=      5-min Rain = 0
KSC1 062311Z 36005KT 07/02 A3022 RMK A01 T00680020  RH  072%=      5-min Rain = 0
KSC1 062312Z 00005KT 07/02 A3022 RMK A01 T00680020  RH  072%=      5-min Rain = 0
KSC1 062313Z 35005KT 07/02 A3022 RMK A01 T00680020  RH  072%=      5-min Rain = 0
KSC1 062314Z 00005KT 07/02 A3022 RMK A01 T00680021  RH  072%=      5-min Rain = 0
KSC1 062315Z 35006KT 07/02 A3022 RMK A01 T00690021  RH  071%=      5-min Rain = 0
KSC1 062316Z 35007KT 07/02 A3022 RMK A01 T00690020  RH  071%=      5-min Rain = 0
KSC1 062317Z 34005KT 07/02 A3022 RMK A01 T00690020  RH  071%=      5-min Rain = 0
KSC1 062318Z 35007KT 07/02 A3022 RMK A01 T00680019  RH  071%=      5-min Rain = 0
KSC1 062319Z 01007KT 07/02 A3022 RMK A01 T00690019  RH  071%=      5-min Rain = 0
KSC1 062320Z 01007KT 07/02 A3022 RMK A01 T00680019  RH  071%=      5-min Rain = 0
KSC1 062321Z 00008KT 07/02 A3022 RMK A01 T00680018  RH  070%=      5-min Rain = 0
KSC1 062322Z 01008G13KT 07/02 A3022 RMK A01 T00680017  RH  070%=      5-min Rain = 0
KSC1 062323Z 36008KT 07/02 A3022 RMK A01 T00680016  RH  070%=      5-min Rain = 0
KSC1 062324Z 00010KT 07/02 A3022 RMK A01 T00680016  RH  069%=      5-min Rain = 0
KSC1 062325Z 01010KT 07/02 A3022 RMK A01 T00680015  RH  069%=      5-min Rain = 0
KSC1 062326Z 00008KT 07/01 A3022 RMK A01 T00670014  RH  069%=      5-min Rain = 0
KSC1 062327Z 00007KT 07/01 A3023 RMK A01 T00670014  RH  069%=      5-min Rain = 0
KSC1 062328Z 00009KT 07/01 A3023 RMK A01 T00670014  RH  069%=      5-min Rain = 0
KSC1 062329Z 01008KT 07/01 A3023 RMK A01 T00670014  RH  069%=      5-min Rain = 0
KSC1 062330Z 01010KT 07/01 A3023 RMK A01 T00670014  RH  069%=      5-min Rain = 0
KSC1 062331Z 01010KT 07/01 A3022 RMK A01 T00670013  RH  069%=      5-min Rain = 0
KSC1 062332Z 00011KT 07/01 A3022 RMK A01 T00660013  RH  069%=      5-min Rain = 0
KSC1 062333Z 01009KT 07/01 A3022 RMK A01 T00660014  RH  069%=      5-min Rain = 0
KSC1 062334Z 01010KT 07/01 A3022 RMK A01 T00660014  RH  069%=      5-min Rain = 0
KSC1 062335Z 00010KT 07/01 A3023 RMK A01 T00660014  RH  069%=      5-min Rain = 0
KSC1 062336Z 35009KT 07/01 A3023 RMK A01 T00660014  RH  070%=      5-min Rain = 0
KSC1 062337Z 35012KT 07/01 A3023 RMK A01 T00660014  RH  069%=      5-min Rain = 0
KSC1 062338Z 35008KT 07/01 A3023 RMK A01 T00650013  RH  069%=      5-min Rain = 0
KSC1 062339Z 36008KT 07/01 A3023 RMK A01 T00650013  RH  069%=      5-min Rain = 0
KSC1 062340Z 36009KT 07/01 A3023 RMK A01 T00650013  RH  069%=      5-min Rain = 0
KSC1 062341Z 00010KT 07/01 A3023 RMK A01 T00650013  RH  069%=      5-min Rain = 0
KSC1 062342Z 00010KT 07/01 A3023 RMK A01 T00650012  RH  069%=      5-min Rain = 0
KSC1 062343Z 35008KT 07/01 A3023 RMK A01 T00650011  RH  069%=      5-min Rain = 0
KSC1 062344Z 36007KT 07/01 A3023 RMK A01 T00650011  RH  069%=      5-min Rain = 0
KSC1 062345Z 35009KT 06/01 A3023 RMK A01 T00640011  RH  068%=      5-min Rain = 0
KSC1 062346Z 36007KT 06/01 A3023 RMK A01 T00640010  RH  068%=      5-min Rain = 0
KSC1 062347Z 34007KT 06/01 A3023 RMK A01 T00640010  RH  068%=      5-min Rain = 0
KSC1 062348Z 36007KT 06/01 A3023 RMK A01 T00640010  RH  068%=      5-min Rain = 0
KSC1 062349Z 34008KT 06/01 A3023 RMK A01 T00640009  RH  068%=      5-min Rain = 0
KSC1 062350Z 35009KT 06/01 A3023 RMK A01 T00640009  RH  068%=      5-min Rain = 0
KSC1 062351Z 34008KT 06/01 A3024 RMK A01 T00640008  RH  067%=      5-min Rain = 0
KSC1 062352Z 35008KT 06/01 A3024 RMK A01 T00640008  RH  067%=      5-min Rain = 0
KSC1 062353Z 35008KT 06/01 A3024 RMK A01 T00630008  RH  067%=      5-min Rain = 0
KSC1 062354Z 35009KT 06/01 A3024 RMK A01 T00640008  RH  067%=      5-min Rain = 0
KSC1 062355Z 35008KT 06/01 A3024 RMK A01 T00640007  RH  067%=      5-min Rain = 0
KSC1 062356Z 34008KT 06/01 A3024 RMK A01 T00630007  RH  067%=      5-min Rain = 0
KSC1 062357Z 34011KT 06/01 A3024 RMK A01 T00630006  RH  067%=      5-min Rain = 0
KSC1 062358Z 35009KT 06/01 A3024 RMK A01 T00630005  RH  067%=      5-min Rain = 0
KSC1 062359Z 35008G13KT 06/01 A3024 RMK A01 T00630005  RH  067%=      5-min Rain = 0
KSC1 070000Z 35011KT 06/00 A3024 RMK A01 T00620004  RH  066%=      5-min Rain = 0
KSC1 070001Z 35010KT 06/00 A3024 RMK A01 T00620003  RH  066%=      5-min Rain = 0
KSC1 070002Z 35010KT 06/00 A3024 RMK A01 T00620003  RH  066%=      5-min Rain = 0
KSC1 070003Z 36010KT 06/00 A3024 RMK A01 T00610002  RH  066%=      5-min Rain = 0
KSC1 070004Z 35007KT 06/00 A3024 RMK A01 T00610003  RH  066%=      5-min Rain = 0
KSC1 070005Z 35010KT 06/00 A3023 RMK A01 T00610003  RH  066%=      5-min Rain = 0
KSC1 070006Z 35009KT 06/00 A3023 RMK A01 T00610002  RH  066%=      5-min Rain = 0
KSC1 070007Z 36006KT 06/00 A3023 RMK A01 T00610003  RH  066%=      5-min Rain = 0
KSC1 070008Z 36006KT 06/00 A3023 RMK A01 T00610004  RH  067%=      5-min Rain = 0
KSC1 070009Z 35007KT 06/00 A3023 RMK A01 T00610003  RH  067%=      5-min Rain = 0
KSC1 070010Z 00007KT 06/00 A3023 RMK A01 T00610003  RH  067%=      5-min Rain = 0
KSC1 070011Z 36007KT 06/00 A3023 RMK A01 T00610003  RH  067%=      5-min Rain = 0
KSC1 070012Z 35007KT 06/00 A3023 RMK A01 T00600003  RH  067%=      5-min Rain = 0
KSC1 070013Z 35008KT 06/00 A3023 RMK A01 T00600004  RH  067%=      5-min Rain = 0
KSC1 070014Z 35008KT 06/00 A3023 RMK A01 T00600004  RH  067%=      5-min Rain = 0
KSC1 070015Z 35010KT 06/00 A3023 RMK A01 T00600004  RH  067%=      5-min Rain = 0
KSC1 070016Z 35010KT 06/00 A3024 RMK A01 T00590003  RH  067%=      5-min Rain = 0
KSC1 070017Z 35009G14KT 06/00 A3024 RMK A01 T00590003  RH  067%=      5-min Rain = 0
KSC1 070018Z 35009G14KT 06/00 A3024 RMK A01 T00580003  RH  067%=      5-min Rain = 0
KSC1 070019Z 35010KT 06/00 A3024 RMK A01 T00580003  RH  068%=      5-min Rain = 0
KSC1 070020Z 36007KT 06/00 A3024 RMK A01 T00580003  RH  068%=      5-min Rain = 0
KSC1 070021Z 35010KT 06/00 A3024 RMK A01 T00570003  RH  068%=      5-min Rain = 0
KSC1 070022Z 36008KT 06/00 A3024 RMK A01 T00580003  RH  068%=      5-min Rain = 0
KSC1 070023Z 36008KT 06/00 A3024 RMK A01 T00570003  RH  068%=      5-min Rain = 0
KSC1 070024Z 02010KT 06/00 A3024 RMK A01 T00580004  RH  068%=      5-min Rain = 0
KSC1 070025Z 01009KT 06/00 A3024 RMK A01 T00570004  RH  069%=      5-min Rain = 0
KSC1 070026Z 01007KT 06/00 A3024 RMK A01 T00570004  RH  069%=      5-min Rain = 0
KSC1 070027Z 36009KT 06/00 A3024 RMK A01 T00560004  RH  069%=      5-min Rain = 0
KSC1 070028Z 01010KT 06/00 A3024 RMK A01 T00560004  RH  069%=      5-min Rain = 0
KSC1 070029Z 36009KT 06/00 A3024 RMK A01 T00560003  RH  069%=      5-min Rain = 0
KSC1 070030Z 36010KT 06/00 A3024 RMK A01 T00550003  RH  069%=      5-min Rain = 0
KSC1 070031Z 36010KT 06/00 A3024 RMK A01 T00550003  RH  069%=      5-min Rain = 0
KSC1 070032Z 36011KT 06/00 A3024 RMK A01 T00550003  RH  069%=      5-min Rain = 0
KSC1 070033Z 36008KT 05/00 A3024 RMK A01 T00540003  RH  069%=      5-min Rain = 0
KSC1 070034Z 00009KT 05/00 A3024 RMK A01 T00540003  RH  070%=      5-min Rain = 0
KSC1 070035Z 00008KT 05/00 A3024 RMK A01 T00540004  RH  070%=      5-min Rain = 0
KSC1 070036Z 36007KT 05/00 A3024 RMK A01 T00540004  RH  070%=      5-min Rain = 0
KSC1 070037Z 01006KT 05/00 A3024 RMK A01 T00540004  RH  070%=      5-min Rain = 0
KSC1 070038Z 01006KT 05/00 A3025 RMK A01 T00540004  RH  070%=      5-min Rain = 0
KSC1 070039Z 01007KT 05/00 A3025 RMK A01 T00540004  RH  070%=      5-min Rain = 0
KSC1 070040Z 01011KT 05/00 A3025 RMK A01 T00540004  RH  070%=      5-min Rain = 0
KSC1 070041Z 01009KT 05/00 A3025 RMK A01 T00530003  RH  070%=      5-min Rain = 0
KSC1 070042Z 00010KT 05/00 A3025 RMK A01 T00530004  RH  070%=      5-min Rain = 0
KSC1 070043Z 36010KT 05/00 A3025 RMK A01 T00530004  RH  071%=      5-min Rain = 0
KSC1 070044Z 01010KT 05/00 A3025 RMK A01 T00520004  RH  071%=      5-min Rain = 0
KSC1 070045Z 01010KT 05/00 A3025 RMK A01 T00520004  RH  071%=      5-min Rain = 0
KSC1 070046Z 01008KT 05/00 A3025 RMK A01 T00520004  RH  071%=      5-min Rain = 0
KSC1 070047Z 00007KT 05/00 A3025 RMK A01 T00520004  RH  071%=      5-min Rain = 0
KSC1 070048Z 00007KT 05/00 A3025 RMK A01 T00520004  RH  071%=      5-min Rain = 0
KSC1 070049Z 36007KT 05/00 A3025 RMK A01 T00510004  RH  071%=      5-min Rain = 0
KSC1 070050Z 00009KT 05/00 A3025 RMK A01 T00510004  RH  071%=      5-min Rain = 0
KSC1 070051Z 01008KT 05/00 A3025 RMK A01 T00510004  RH  071%=      5-min Rain = 0
KSC1 070052Z 01008KT 05/00 A3025 RMK A01 T00510003  RH  071%=      5-min Rain = 0
KSC1 070053Z 01010KT 05/00 A3025 RMK A01 T00510003  RH  071%=      5-min Rain = 0
KSC1 070054Z 00009KT 05/00 A3025 RMK A01 T00500002  RH  071%=      5-min Rain = 0
KSC1 070055Z 00010KT 05/00 A3026 RMK A01 T00500002  RH  071%=      5-min Rain = 0
KSC1 070056Z 00006KT 05/00 A3026 RMK A01 T00500003  RH  071%=      5-min Rain = 0
KSC1 070057Z 01009KT 05/00 A3026 RMK A01 T00500003  RH  071%=      5-min Rain = 0
KSC1 070058Z 00009KT 05/00 A3026 RMK A01 T00500002  RH  071%=      5-min Rain = 0
KSC1 070059Z 35006KT 05/00 A3026 RMK A01 T00500002  RH  071%=      5-min Rain = 0
KSC1 070100Z 35008KT 05/00 A3026 RMK A01 T00500003  RH  071%=      5-min Rain = 0
KSC1 070101Z 35010KT 05/00 A3026 RMK A01 T00500003  RH  071%=      5-min Rain = 0
KSC1 070102Z 35011KT 05/00 A3026 RMK A01 T00500004  RH  072%=      5-min Rain = 0
KSC1 070103Z 34011KT 05/01 A3026 RMK A01 T00490005  RH  073%=      5-min Rain = 0
KSC1 070104Z 34010G15KT 05/01 A3026 RMK A01 T00480005  RH  074%=      5-min Rain = 0
KSC1 070105Z 34010KT 05/01 A3026 RMK A01 T00470005  RH  074%=      5-min Rain = 0
KSC1 070106Z 34009KT 05/01 A3026 RMK A01 T00470005  RH  074%=      5-min Rain = 0
KSC1 070107Z 35010KT 05/01 A3026 RMK A01 T00470005  RH  075%=      5-min Rain = 0
KSC1 070108Z 34010KT 05/01 A3027 RMK A01 T00460005  RH  075%=      5-min Rain = 0
KSC1 070109Z 34007KT 05/01 A3027 RMK A01 T00460006  RH  075%=      5-min Rain = 0
KSC1 070110Z 35007KT 05/01 A3027 RMK A01 T00460006  RH  075%=      5-min Rain = 0
KSC1 070111Z 34008KT 05/01 A3027 RMK A01 T00460007  RH  076%=      5-min Rain = 0
KSC1 070112Z 35007KT 05/01 A3027 RMK A01 T00460006  RH  076%=      5-min Rain = 0
KSC1 070113Z 36010KT 05/01 A3027 RMK A01 T00460006  RH  076%=      5-min Rain = 0
KSC1 070114Z 35011KT 05/01 A3027 RMK A01 T00460006  RH  076%=      5-min Rain = 0
KSC1 070115Z 36009KT 05/01 A3027 RMK A01 T00460007  RH  076%=      5-min Rain = 0
KSC1 070116Z 35012KT 05/01 A3027 RMK A01 T00450006  RH  076%=      5-min Rain = 0
KSC1 070117Z 35010KT 04/01 A3027 RMK A01 T00440006  RH  076%=      5-min Rain = 0
KSC1 070118Z 35009KT 04/01 A3027 RMK A01 T00440006  RH  076%=      5-min Rain = 0
KSC1 070119Z 35011KT 04/01 A3027 RMK A01 T00440006  RH  076%=      5-min Rain = 0
KSC1 070120Z 35010KT 04/01 A3027 RMK A01 T00440006  RH  076%=      5-min Rain = 0
KSC1 070121Z 35009KT 04/01 A3027 RMK A01 T00440006  RH  076%=      5-min Rain = 0
KSC1 070122Z 35008KT 04/01 A3027 RMK A01 T00440006  RH  076%=      5-min Rain = 0
KSC1 070123Z 35011KT 04/01 A3027 RMK A01 T00440005  RH  076%=      5-min Rain = 0
KSC1 070124Z 35008KT 04/01 A3027 RMK A01 T00440005  RH  076%=      5-min Rain = 0
KSC1 070125Z 35011KT 04/00 A3027 RMK A01 T00440004  RH  076%=      5-min Rain = 0
KSC1 070126Z 35011KT 04/00 A3027 RMK A01 T00440004  RH  076%=      5-min Rain = 0
KSC1 070127Z 36008KT 04/01 A3027 RMK A01 T00440005  RH  076%=      5-min Rain = 0
KSC1 070128Z 35009KT 04/01 A3027 RMK A01 T00440005  RH  076%=      5-min Rain = 0
KSC1 070129Z 35007G12KT 04/01 A3027 RMK A01 T00430005  RH  076%=      5-min Rain = 0
KSC1 070130Z 35007KT 04/01 A3027 RMK A01 T00430005  RH  076%=      5-min Rain = 0
KSC1 070131Z 01009KT 04/00 A3027 RMK A01 T00430004  RH  076%=      5-min Rain = 0
KSC1 070132Z 00008KT 04/00 A3027 RMK A01 T00430004  RH  076%=      5-min Rain = 0
KSC1 070133Z 35009KT 04/00 A3027 RMK A01 T00430004  RH  075%=      5-min Rain = 0
KSC1 070134Z 35010KT 04/00 A3027 RMK A01 T00430004  RH  075%=      5-min Rain = 0
KSC1 070135Z 35008KT 04/00 A3027 RMK A01 T00430004  RH  075%=      5-min Rain = 0
KSC1 070136Z 35008G13KT 04/00 A3027 RMK A01 T00430004  RH  076%=      5-min Rain = 0
KSC1 070137Z 35010KT 04/00 A3027 RMK A01 T00430004  RH  076%=      5-min Rain = 0
KSC1 070138Z 35011KT 04/00 A3027 RMK A01 T00430004  RH  076%=      5-min Rain = 0
KSC1 070139Z 35010KT 04/01 A3027 RMK A01 T00430005  RH  076%=      5-min Rain = 0
KSC1 070140Z 35009KT 04/01 A3027 RMK A01 T00420005  RH  077%=      5-min Rain = 0
KSC1 070141Z 35011KT 04/01 A3027 RMK A01 T00420006  RH  077%=      5-min Rain = 0
KSC1 070142Z 35012KT 04/01 A3028 RMK A01 T00420006  RH  077%=      5-min Rain = 0
KSC1 070143Z 36012KT 04/01 A3027 RMK A01 T00410005  RH  077%=      5-min Rain = 0
KSC1 070144Z 35011KT 04/01 A3027 RMK A01 T00410005  RH  077%=      5-min Rain = 0
KSC1 070145Z 35011KT 04/01 A3027 RMK A01 T00400005  RH  077%=      5-min Rain = 0
KSC1 070146Z 35007KT 04/01 A3027 RMK A01 T00400005  RH  078%=      5-min Rain = 0
KSC1 070147Z 35008KT 04/01 A3027 RMK A01 T00400005  RH  078%=      5-min Rain = 0
KSC1 070148Z 36007KT 04/01 A3027 RMK A01 T00400005  RH  078%=      5-min Rain = 0
KSC1 070149Z 01007KT 04/01 A3027 RMK A01 T00400005  RH  078%=      5-min Rain = 0
KSC1 070150Z 00006KT 04/01 A3027 RMK A01 T00400006  RH  078%=      5-min Rain = 0
KSC1 070151Z 36008KT 04/01 A3027 RMK A01 T00400006  RH  078%=      5-min Rain = 0
KSC1 070152Z 36010KT 04/01 A3027 RMK A01 T00400006  RH  078%=      5-min Rain = 0
KSC1 070153Z 36009KT 04/01 A3027 RMK A01 T00410006  RH  078%=      5-min Rain = 0
KSC1 070154Z 01011KT 04/01 A3027 RMK A01 T00400006  RH  078%=      5-min Rain = 0
KSC1 070155Z 36010KT 04/01 A3027 RMK A01 T00400006  RH  079%=      5-min Rain = 0
KSC1 070156Z 00009KT 04/01 A3027 RMK A01 T00400006  RH  079%=      5-min Rain = 0
KSC1 070157Z 00008KT 04/01 A3027 RMK A01 T00390006  RH  079%=      5-min Rain = 0
KSC1 070158Z 36006KT 04/01 A3027 RMK A01 T00400007  RH  079%=      5-min Rain = 0
KSC1 070159Z 00009KT 04/01 A3027 RMK A01 T00390007  RH  079%=      5-min Rain = 0
KSC1 070200Z 01008KT 04/01 A3027 RMK A01 T00390007  RH  079%=      5-min Rain = 0
KSC1 070201Z 01008KT 04/01 A3027 RMK A01 T00390007  RH  080%=      5-min Rain = 0
KSC1 070202Z 01010KT 04/01 A3028 RMK A01 T00390007  RH  080%=      5-min Rain = 0
KSC1 070203Z 01007KT 04/01 A3028 RMK A01 T00390007  RH  080%=      5-min Rain = 0
KSC1 070204Z 00006KT 04/01 A3028 RMK A01 T00390007  RH  080%=      5-min Rain = 0
KSC1 070205Z 00006KT 04/01 A3028 RMK A01 T00390007  RH  080%=      5-min Rain = 0
KSC1 070206Z 00006KT 04/01 A3028 RMK A01 T00390007  RH  080%=      5-min Rain = 0
KSC1 070207Z 00009KT 04/01 A3028 RMK A01 T00390007  RH  080%=      5-min Rain = 0
KSC1 070208Z 01008KT 04/01 A3028 RMK A01 T00390007  RH  080%=      5-min Rain = 0
KSC1 070209Z 36006KT 04/01 A3028 RMK A01 T00380007  RH  080%=      5-min Rain = 0
KSC1 070210Z 36007KT 04/01 A3028 RMK A01 T00380007  RH  080%=      5-min Rain = 0
KSC1 070211Z 00008KT 04/01 A3028 RMK A01 T00380007  RH  080%=      5-min Rain = 0
KSC1 070212Z 36007KT 04/01 A3028 RMK A01 T00380006  RH  080%=      5-min Rain = 0
KSC1 070213Z 35007KT 04/01 A3028 RMK A01 T00380006  RH  080%=      5-min Rain = 0
KSC1 070214Z 36008KT 04/01 A3028 RMK A01 T00380006  RH  080%=      5-min Rain = 0
KSC1 070215Z 36009KT 04/01 A3028 RMK A01 T00380007  RH  080%=      5-min Rain = 0
KSC1 070216Z 36008KT 04/01 A3028 RMK A01 T00380007  RH  080%=      5-min Rain = 0
KSC1 070217Z 36008KT 04/01 A3028 RMK A01 T00380007  RH  080%=      5-min Rain = 0
KSC1 070218Z 36008KT 04/01 A3028 RMK A01 T00380007  RH  080%=      5-min Rain = 0
KSC1 070219Z 36007KT 04/01 A3028 RMK A01 T00380007  RH  080%=      5-min Rain = 0
KSC1 070220Z 01008KT 04/01 A3028 RMK A01 T00380007  RH  080%=      5-min Rain = 0
KSC1 070221Z 01007KT 04/01 A3028 RMK A01 T00380007  RH  080%=      5-min Rain = 0
KSC1 070222Z 01008KT 04/01 A3028 RMK A01 T00380007  RH  080%=      5-min Rain = 0
KSC1 070223Z 00009KT 04/01 A3028 RMK A01 T00380006  RH  080%=      5-min Rain = 0
KSC1 070224Z 01009KT 04/01 A3028 RMK A01 T00380006  RH  080%=      5-min Rain = 0
KSC1 070225Z 36008KT 04/01 A3028 RMK A01 T00380006  RH  080%=      5-min Rain = 0
KSC1 070226Z 01007KT 04/01 A3028 RMK A01 T00380006  RH  080%=      5-min Rain = 0
KSC1 070227Z 01007KT 04/01 A3028 RMK A01 T00380006  RH  080%=      5-min Rain = 0
KSC1 070228Z 01008KT 04/01 A3028 RMK A01 T00380006  RH  080%=      5-min Rain = 0
KSC1 070229Z 01008KT 04/01 A3029 RMK A01 T00380006  RH  080%=      5-min Rain = 0
KSC1 070230Z 36008KT 04/01 A3029 RMK A01 T00380006  RH  080%=      5-min Rain = 0
KSC1 070231Z 36006KT 04/01 A3029 RMK A01 T00380006  RH  080%=      5-min Rain = 0
KSC1 070232Z 01007KT 04/01 A3029 RMK A01 T00380006  RH  080%=      5-min Rain = 0
KSC1 070233Z 00009KT 04/01 A3029 RMK A01 T00380006  RH  080%=      5-min Rain = 0
KSC1 070234Z 00008KT 04/01 A3029 RMK A01 T00380006  RH  080%=      5-min Rain = 0
KSC1 070235Z 35009KT 04/01 A3029 RMK A01 T00380006  RH  080%=      5-min Rain = 0
KSC1 070236Z 36009KT 04/01 A3029 RMK A01 T00370006  RH  080%=      5-min Rain = 0
KSC1 070237Z 36010KT 04/01 A3029 RMK A01 T00370006  RH  080%=      5-min Rain = 0
KSC1 070238Z 36011KT 04/01 A3029 RMK A01 T00370006  RH  080%=      5-min Rain = 0
KSC1 070239Z 35011KT 04/01 A3029 RMK A01 T00370006  RH  080%=      5-min Rain = 0
KSC1 070240Z 36009KT 04/01 A3029 RMK A01 T00370006  RH  080%=      5-min Rain = 0
KSC1 070241Z 00011KT 04/01 A3029 RMK A01 T00370006  RH  080%=      5-min Rain = 0
KSC1 070242Z 00008KT 04/01 A3029 RMK A01 T00370006  RH  080%=      5-min Rain = 0
KSC1 070243Z 36009KT 04/01 A3029 RMK A01 T00370006  RH  080%=      5-min Rain = 0
KSC1 070244Z 00009KT 04/01 A3029 RMK A01 T00370006  RH  080%=      5-min Rain = 0
KSC1 070245Z 35009KT 04/01 A3029 RMK A01 T00370006  RH  080%=      5-min Rain = 0
KSC1 070246Z 35008KT 04/01 A3029 RMK A01 T00370006  RH  080%=      5-min Rain = 0
KSC1 070247Z 35009KT 04/01 A3029 RMK A01 T00370006  RH  080%=      5-min Rain = 0
KSC1 070248Z 35006KT 04/01 A3029 RMK A01 T00370006  RH  080%=      5-min Rain = 0
KSC1 070249Z 35006KT 04/01 A3029 RMK A01 T00370006  RH  080%=      5-min Rain = 0
KSC1 070250Z 35008KT 04/01 A3029 RMK A01 T00370006  RH  080%=      5-min Rain = 0
KSC1 070251Z 35009KT 04/01 A3029 RMK A01 T00370006  RH  080%=      5-min Rain = 0
KSC1 070252Z 35007KT 04/01 A3029 RMK A01 T00370005  RH  080%=      5-min Rain = 0
KSC1 070253Z 00008KT 04/01 A3029 RMK A01 T00370005  RH  080%=      5-min Rain = 0
KSC1 070254Z 35009KT 04/01 A3029 RMK A01 T00370005  RH  080%=      5-min Rain = 0
KSC1 070255Z 35008KT 04/01 A3029 RMK A01 T00370005  RH  079%=      5-min Rain = 0
KSC1 070256Z 36009KT 04/00 A3029 RMK A01 T00370004  RH  079%=      5-min Rain = 0
KSC1 070257Z 36011KT 04/00 A3028 RMK A01 T00370004  RH  079%=      5-min Rain = 0
KSC1 070258Z 36011KT 04/00 A3028 RMK A01 T00370004  RH  079%=      5-min Rain = 0
KSC1 070259Z 36010KT 04/00 A3028 RMK A01 T00370004  RH  079%=      5-min Rain = 0
KSC1 070300Z 36011KT 04/00 A3028 RMK A01 T00370003  RH  079%=      5-min Rain = 0
KSC1 070301Z 00010KT 04/00 A3028 RMK A01 T00370003  RH  078%=      5-min Rain = 0
KSC1 070302Z 01008KT 04/00 A3027 RMK A01 T00370003  RH  078%=      5-min Rain = 0
KSC1 070303Z 01011KT 04/00 A3026 RMK A01 T00370003  RH  078%=      5-min Rain = 0
KSC1 070304Z 01010G15KT 04/00 A3026 RMK A01 T00370003  RH  078%=      5-min Rain = 0
KSC1 070305Z 01012KT 04/00 A3025 RMK A01 T00380003  RH  078%=      5-min Rain = 0
KSC1 070306Z 01010KT 04/00 A3025 RMK A01 T00380003  RH  078%=      5-min Rain = 0
KSC1 070307Z 02009KT 04/00 A3026 RMK A01 T00380003  RH  078%=      5-min Rain = 0
KSC1 070308Z 02007KT 04/00 A3027 RMK A01 T00380003  RH  078%=      5-min Rain = 0
KSC1 070309Z 02006KT 04/00 A3027 RMK A01 T00380003  RH  078%=      5-min Rain = 0
KSC1 070310Z 03008KT 04/00 A3027 RMK A01 T00380003  RH  078%=      5-min Rain = 0
KSC1 070311Z 03012KT 04/00 A3025 RMK A01 T00380002  RH  077%=      5-min Rain = 0
KSC1 070312Z 03013KT 04/00 A3024 RMK A01 T00380002  RH  077%=      5-min Rain = 0
KSC1 070313Z 02011KT 04/00 A3023 RMK A01 T00370002  RH  078%=      5-min Rain = 0
KSC1 070314Z 02011KT 04/00 A3022 RMK A01 T00370002  RH  078%=      5-min Rain = 0
KSC1 070315Z 02012G17KT 04/00 A3022 RMK A01 T00370002  RH  078%=      5-min Rain = 0
KSC1 070316Z 02013KT 04/00 A3022 RMK A01 T00370002  RH  078%=      5-min Rain = 0
KSC1 070317Z 02013KT 04/00 A3022 RMK A01 T00370002  RH  078%=      5-min Rain = 0
KSC1 070318Z 02013KT 04/00 A3022 RMK A01 T00370002  RH  078%=      5-min Rain = 0
KSC1 070319Z 01010KT 04/00 A3022 RMK A01 T00360002  RH  078%=      5-min Rain = 0
KSC1 070320Z 01013KT 04/00 A3022 RMK A01 T00360003  RH  079%=      5-min Rain = 0
KSC1 070321Z 01011KT 04/00 A3023 RMK A01 T00360002  RH  079%=      5-min Rain = 0
KSC1 070322Z 01012KT 04/00 A3023 RMK A01 T00360002  RH  078%=      5-min Rain = 0
KSC1 070323Z 02011KT 04/00 A3023 RMK A01 T00360002  RH  078%=      5-min Rain = 0
KSC1 070324Z 01008KT 04/00 A3023 RMK A01 T00360002  RH  078%=      5-min Rain = 0
KSC1 070325Z 01010G15KT 04/00 A3024 RMK A01 T00370003  RH  079%=      5-min Rain = 0
KSC1 070326Z 01009KT 04/00 A3024 RMK A01 T00360002  RH  078%=      5-min Rain = 0
KSC1 070327Z 35008G13KT 04/00 A3024 RMK A01 T00360002  RH  078%=      5-min Rain = 0
KSC1 070328Z 35009KT 04/00 A3024 RMK A01 T00360002  RH  078%=      5-min Rain = 0
KSC1 070329Z 36009KT 04/00 A3025 RMK A01 T00360002  RH  078%=      5-min Rain = 0
KSC1 070330Z 36011KT 04/00 A3025 RMK A01 T00360002  RH  078%=      5-min Rain = 0
KSC1 070331Z 00009KT 04/00 A3025 RMK A01 T00360001  RH  078%=      5-min Rain = 0
KSC1 070332Z 36008KT 04/00 A3025 RMK A01 T00370002  RH  078%=      5-min Rain = 0
KSC1 070333Z 01008KT 04/00 A3026 RMK A01 T00370001  RH  078%=      5-min Rain = 0
KSC1 070334Z 01007KT 04/00 A3026 RMK A01 T00370001  RH  077%=      5-min Rain = 0
KSC1 070335Z 02009KT 04/00 A3026 RMK A01 T00370001  RH  077%=      5-min Rain = 0
KSC1 070336Z 01008KT 04/00 A3026 RMK A01 T00370001  RH  077%=      5-min Rain = 0
KSC1 070337Z 01010KT 04/00 A3026 RMK A01 T00370000  RH  077%=      5-min Rain = 0
KSC1 070338Z 02007KT 04/00 A3025 RMK A01 T00370000  RH  077%=      5-min Rain = 0
KSC1 070339Z 02006KT 04/00 A3025 RMK A01 T00370000  RH  077%=      5-min Rain = 0
KSC1 070340Z 01008KT 04/00 A3026 RMK A01 T00370000  RH  077%=      5-min Rain = 0
KSC1 070341Z 01008KT 04/00 A3026 RMK A01 T00370001  RH  077%=      5-min Rain = 0
KSC1 070342Z 01007KT 04/00 A3026 RMK A01 T00370000  RH  077%=      5-min Rain = 0
KSC1 070343Z 02009KT 04/00 A3026 RMK A01 T00370000  RH  077%=      5-min Rain = 0
KSC1 070344Z 02008KT 04/00 A3026 RMK A01 T00370000  RH  077%=      5-min Rain = 0
KSC1 070345Z 02008KT 04/00 A3027 RMK A01 T00380000  RH  077%=      5-min Rain = 0
KSC1 070346Z 01006KT 04/00 A3027 RMK A01 T00380000  RH  076%=      5-min Rain = 0
KSC1 070347Z 36008KT 04/00 A3027 RMK A01 T00380001  RH  077%=      5-min Rain = 0
KSC1 070348Z 00010KT 04/00 A3027 RMK A01 T00380000  RH  076%=      5-min Rain = 0
KSC1 070349Z 36008KT 04/00 A3027 RMK A01 T003800-0  RH  076%=      5-min Rain = 0
KSC1 070350Z 36008KT 04/M00 A3027 RMK A01 T00381001  RH  076%=      5-min Rain = 0
KSC1 070351Z 00007KT 04/M00 A3028 RMK A01 T00381001  RH  076%=      5-min Rain = 0
KSC1 070352Z 01007KT 04/M00 A3028 RMK A01 T00381002  RH  075%=      5-min Rain = 0
KSC1 070353Z 00007KT 04/M00 A3029 RMK A01 T00381001  RH  075%=      5-min Rain = 0
KSC1 070354Z 36006KT 04/M00 A3029 RMK A01 T00391001  RH  075%=      5-min Rain = 0
KSC1 070355Z 00005KT 04/M00 A3029 RMK A01 T00391001  RH  075%=      5-min Rain = 0
KSC1 070356Z 36005KT 04/M00 A303 RMK A01 T00391001  RH  075%=      5-min Rain = 0
KSC1 070357Z 35005KT 04/M00 A303 RMK A01 T00391001  RH  075%=      5-min Rain = 0
KSC1 070358Z 35005KT 04/M00 A303 RMK A01 T00391001  RH  075%=      5-min Rain = 0
KSC1 070359Z 01007KT 04/M00 A303 RMK A01 T00391001  RH  075%=      5-min Rain = 0
KSC1 070400Z 01005KT 04/M00 A303 RMK A01 T00391002  RH  075%=      5-min Rain = 0
KSC1 070401Z 36006KT 04/M00 A303 RMK A01 T00391002  RH  075%=      5-min Rain = 0
KSC1 070402Z 35009KT 04/M00 A303 RMK A01 T00391002  RH  075%=      5-min Rain = 0
KSC1 070403Z 35007KT 04/M00 A303 RMK A01 T00391002  RH  074%=      5-min Rain = 0
KSC1 070404Z 00006KT 04/M00 A303 RMK A01 T00401002  RH  074%=      5-min Rain = 0
KSC1 070405Z 00008KT 04/M00 A303 RMK A01 T00401002  RH  074%=      5-min Rain = 0
KSC1 070406Z 00006KT 04/M00 A303 RMK A01 T00401003  RH  074%=      5-min Rain = 0
KSC1 070407Z 36006KT 04/M00 A303 RMK A01 T00391003  RH  074%=      5-min Rain = 0
KSC1 070408Z 01006KT 04/M00 A303 RMK A01 T00401002  RH  074%=      5-min Rain = 0
KSC1 070409Z 03005KT 04/M00 A303 RMK A01 T00401002  RH  074%=      5-min Rain = 0
KSC1 070410Z 02006KT 04/M00 A303 RMK A01 T00401002  RH  074%=      5-min Rain = 0
KSC1 070411Z 01005KT 04/M00 A3031 RMK A01 T00401003  RH  074%=      5-min Rain = 0
KSC1 070412Z 02005KT 04/M00 A3031 RMK A01 T00401003  RH  074%=      5-min Rain = 0
KSC1 070413Z 03004KT 04/M00 A3031 RMK A01 T00401003  RH  074%=      5-min Rain = 0
KSC1 070414Z 03005KT 04/M00 A3031 RMK A01 T00401003  RH  074%=      5-min Rain = 0
KSC1 070415Z 02005KT 04/M00 A3031 RMK A01 T00401003  RH  074%=      5-min Rain = 0
KSC1 070416Z 01007KT 04/M00 A3031 RMK A01 T00401003  RH  073%=      5-min Rain = 0
KSC1 070417Z 36007KT 04/M00 A3032 RMK A01 T00401003  RH  073%=      5-min Rain = 0
KSC1 070418Z 35008KT 04/M00 A3032 RMK A01 T00401003  RH  073%=      5-min Rain = 0
KSC1 070419Z 36005KT 04/M00 A3032 RMK A01 T00401003  RH  073%=      5-min Rain = 0
KSC1 070420Z 36005KT 04/M00 A3032 RMK A01 T00401003  RH  073%=      5-min Rain = 0
KSC1 070421Z 36005KT 04/M00 A3032 RMK A01 T00401003  RH  074%=      5-min Rain = 0
KSC1 070422Z 00004KT 04/M00 A3031 RMK A01 T00411003  RH  073%=      5-min Rain = 0
KSC1 070423Z 36008KT 04/M00 A3031 RMK A01 T00411003  RH  073%=      5-min Rain = 0
KSC1 070424Z 36007KT 04/M00 A3031 RMK A01 T00411003  RH  073%=      5-min Rain = 0
KSC1 070425Z 36009KT 04/M00 A3031 RMK A01 T00401003  RH  073%=      5-min Rain = 0
KSC1 070426Z 00008KT 04/M00 A3031 RMK A01 T00411003  RH  073%=      5-min Rain = 0
KSC1 070427Z 00008KT 04/M00 A3031 RMK A01 T00411003  RH  073%=      5-min Rain = 0
KSC1 070428Z 00008KT 04/M00 A3031 RMK A01 T00411003  RH  073%=      5-min Rain = 0
KSC1 070429Z 00006KT 04/M00 A3031 RMK A01 T00401003  RH  073%=      5-min Rain = 0
KSC1 070430Z 35005KT 04/M00 A3031 RMK A01 T00401003  RH  073%=      5-min Rain = 0
KSC1 070431Z 35007KT 04/M00 A3031 RMK A01 T00411002  RH  073%=      5-min Rain = 0
KSC1 070432Z 00007KT 04/M00 A3031 RMK A01 T00411003  RH  073%=      5-min Rain = 0
KSC1 070433Z 00008KT 04/M00 A303 RMK A01 T00411003  RH  073%=      5-min Rain = 0
KSC1 070434Z 01007KT 04/M00 A303 RMK A01 T00411003  RH  073%=      5-min Rain = 0
KSC1 070435Z 02008KT 04/M00 A3029 RMK A01 T00411003  RH  073%=      5-min Rain = 0
KSC1 070436Z 01006KT 04/M00 A3029 RMK A01 T00411003  RH  073%=      5-min Rain = 0
KSC1 070437Z 01005KT 04/M00 A3029 RMK A01 T00411003  RH  073%=      5-min Rain = 0
KSC1 070438Z 36006KT 04/M00 A303 RMK A01 T00411003  RH  073%=      5-min Rain = 0
KSC1 070439Z 34005KT 04/M00 A3031 RMK A01 T00411003  RH  073%=      5-min Rain = 0
KSC1 070440Z 33003KT 04/M00 A3031 RMK A01 T00411003  RH  073%=      5-min Rain = 0
KSC1 070441Z 33005KT 04/M00 A3031 RMK A01 T00411003  RH  073%=      5-min Rain = 0
KSC1 070442Z 35005KT 04/M00 A3031 RMK A01 T00411003  RH  073%=      5-min Rain = 0
KSC1 070443Z 36006KT 04/M00 A303 RMK A01 T00411002  RH  073%=      5-min Rain = 0
KSC1 070444Z 36007KT 04/M00 A303 RMK A01 T00421002  RH  073%=      5-min Rain = 0
KSC1 070445Z 35006KT 04/M00 A303 RMK A01 T00411003  RH  073%=      5-min Rain = 0
KSC1 070446Z 36007KT 04/M00 A303 RMK A01 T00421003  RH  073%=      5-min Rain = 0
KSC1 070447Z 00005KT 04/M00 A303 RMK A01 T00411003  RH  073%=      5-min Rain = 0
KSC1 070448Z 36005KT 04/M00 A303 RMK A01 T00411004  RH  073%=      5-min Rain = 0
KSC1 070449Z 00005KT 04/M00 A303 RMK A01 T00421003  RH  073%=      5-min Rain = 0
KSC1 070450Z 36006KT 04/M00 A303 RMK A01 T00421003  RH  073%=      5-min Rain = 0
KSC1 070451Z 36006KT 04/M00 A303 RMK A01 T00411004  RH  072%=      5-min Rain = 0
KSC1 070452Z 35005KT 04/M00 A303 RMK A01 T00421004  RH  072%=      5-min Rain = 0
KSC1 070453Z 34004KT 04/M00 A3031 RMK A01 T00421004  RH  072%=      5-min Rain = 0
KSC1 070454Z 35003KT 04/M00 A3031 RMK A01 T00421004  RH  072%=      5-min Rain = 0
KSC1 070455Z 34005KT 04/M00 A3031 RMK A01 T00411004  RH  072%=      5-min Rain = 0
KSC1 070456Z 34005KT 04/M01 A3031 RMK A01 T00421005  RH  072%=      5-min Rain = 0
KSC1 070457Z 00007KT 04/M01 A3031 RMK A01 T00411005  RH  072%=      5-min Rain = 0
KSC1 070458Z 35006KT 04/M01 A3031 RMK A01 T00421005  RH  072%=      5-min Rain = 0
KSC1 070459Z 36007KT 04/M01 A3031 RMK A01 T00411005  RH  072%=      5-min Rain = 0
KSC1 070500Z 35008KT 04/M01 A3031 RMK A01 T00411005  RH  072%=      5-min Rain = 0
KSC1 070501Z 01006KT 04/M01 A3031 RMK A01 T00411005  RH  072%=      5-min Rain = 0
KSC1 070502Z 01004KT 04/M01 A3031 RMK A01 T00411005  RH  072%=      5-min Rain = 0
KSC1 070503Z 36006KT 04/M01 A3031 RMK A01 T00411005  RH  072%=      5-min Rain = 0
KSC1 070504Z 00006KT 04/M01 A3031 RMK A01 T00421005  RH  072%=      5-min Rain = 0
KSC1 070505Z 35005KT 04/M01 A3031 RMK A01 T00421005  RH  071%=      5-min Rain = 0
KSC1 070506Z 36004KT 04/M01 A3031 RMK A01 T00421005  RH  072%=      5-min Rain = 0
KSC1 070507Z 36003KT 04/M00 A3031 RMK A01 T00421004  RH  072%=      5-min Rain = 0
KSC1 070508Z 35007KT 04/M00 A3031 RMK A01 T00421004  RH  072%=      5-min Rain = 0
KSC1 070509Z 35006KT 04/M01 A303 RMK A01 T00421005  RH  072%=      5-min Rain = 0
KSC1 070510Z 36007KT 04/M01 A303 RMK A01 T00421005  RH  072%=      5-min Rain = 0
KSC1 070511Z 36009KT 04/M01 A303 RMK A01 T00421005  RH  072%=      5-min Rain = 0
KSC1 070512Z 36009KT 04/M01 A303 RMK A01 T00421005  RH  072%=      5-min Rain = 0
KSC1 070513Z 01008KT 04/M01 A303 RMK A01 T00421005  RH  072%=      5-min Rain = 0
KSC1 070514Z 01008KT 04/M01 A303 RMK A01 T00421005  RH  072%=      5-min Rain = 0
KSC1 070515Z 02006KT 04/M01 A3029 RMK A01 T00421005  RH  072%=      5-min Rain = 0
KSC1 070516Z 02007KT 04/M01 A3029 RMK A01 T00421005  RH  072%=      5-min Rain = 0
KSC1 070517Z 03006KT 04/M01 A3029 RMK A01 T00421005  RH  072%=      5-min Rain = 0
KSC1 070518Z 04007KT 04/M01 A3029 RMK A01 T00411005  RH  072%=      5-min Rain = 0
KSC1 070519Z 04006KT 04/M01 A3029 RMK A01 T00411005  RH  072%=      5-min Rain = 0
KSC1 070520Z 03006KT 04/M00 A3028 RMK A01 T00421004  RH  072%=      5-min Rain = 0
KSC1 070521Z 03006KT 04/M00 A3028 RMK A01 T00411004  RH  072%=      5-min Rain = 0
KSC1 070522Z 04007KT 04/M01 A3028 RMK A01 T00411005  RH  072%=      5-min Rain = 0
KSC1 070523Z 04008KT 04/M01 A3028 RMK A01 T00411005  RH  072%=      5-min Rain = 0
KSC1 070524Z 04006KT 04/M01 A3028 RMK A01 T00411005  RH  072%=      5-min Rain = 0
KSC1 070525Z 04007KT 04/M01 A3028 RMK A01 T00411005  RH  072%=      5-min Rain = 0
KSC1 070526Z 04006KT 04/M00 A3028 RMK A01 T00421004  RH  072%=      5-min Rain = 0
KSC1 070527Z 04006KT 04/M00 A3028 RMK A01 T00411004  RH  072%=      5-min Rain = 0
KSC1 070528Z 03005KT 04/M00 A3028 RMK A01 T00421004  RH  072%=      5-min Rain = 0
KSC1 070529Z 02005KT 04/M00 A3029 RMK A01 T00421004  RH  072%=      5-min Rain = 0
KSC1 070530Z 02005KT 04/M00 A3029 RMK A01 T00421004  RH  072%=      5-min Rain = 0
KSC1 070531Z 03005KT 04/M00 A3029 RMK A01 T00421004  RH  072%=      5-min Rain = 0
KSC1 070532Z 02005KT 04/M00 A3029 RMK A01 T00421004  RH  072%=      5-min Rain = 0
KSC1 070533Z 02005KT 04/M00 A3029 RMK A01 T00421003  RH  072%=      5-min Rain = 0
KSC1 070534Z 03004KT 04/M00 A3029 RMK A01 T00421003  RH  072%=      5-min Rain = 0
KSC1 070535Z 02004KT 04/M00 A3029 RMK A01 T00421003  RH  072%=      5-min Rain = 0
KSC1 070536Z 01006KT 04/M00 A3029 RMK A01 T00421003  RH  073%=      5-min Rain = 0
KSC1 070537Z 02006KT 04/M00 A3029 RMK A01 T00421003  RH  073%=      5-min Rain = 0
KSC1 070538Z 03005KT 04/M00 A3029 RMK A01 T00421003  RH  072%=      5-min Rain = 0
KSC1 070539Z 03004KT 04/M00 A3029 RMK A01 T00421003  RH  072%=      5-min Rain = 0
KSC1 070540Z 03004KT 04/M00 A3029 RMK A01 T00421003  RH  072%=      5-min Rain = 0
KSC1 070541Z 03005KT 04/M00 A3029 RMK A01 T00421003  RH  073%=      5-min Rain = 0
KSC1 070542Z 02006KT 04/M00 A3029 RMK A01 T00421003  RH  073%=      5-min Rain = 0
KSC1 070543Z 03005KT 04/M00 A3029 RMK A01 T00421003  RH  073%=      5-min Rain = 0
KSC1 070544Z 02004KT 04/M00 A303 RMK A01 T00421003  RH  073%=      5-min Rain = 0
KSC1 070545Z 02006KT 04/M00 A303 RMK A01 T00421003  RH  073%=      5-min Rain = 0
KSC1 070546Z 02005KT 04/M00 A303 RMK A01 T00421003  RH  072%=      5-min Rain = 0
KSC1 070547Z 01005KT 04/M00 A303 RMK A01 T00421003  RH  072%=      5-min Rain = 0
KSC1 070548Z 36005KT 04/M00 A303 RMK A01 T00421003  RH  072%=      5-min Rain = 0
KSC1 070549Z 00006KT 04/M00 A303 RMK A01 T00421002  RH  073%=      5-min Rain = 0
KSC1 070550Z 35006KT 04/M00 A303 RMK A01 T00421003  RH  073%=      5-min Rain = 0
KSC1 070551Z 35006KT 04/M00 A303 RMK A01 T00421003  RH  072%=      5-min Rain = 0
KSC1 070552Z 35006KT 04/M00 A303 RMK A01 T00421003  RH  072%=      5-min Rain = 0
KSC1 070553Z 35006KT 04/M00 A303 RMK A01 T00431003  RH  072%=      5-min Rain = 0
KSC1 070554Z 35006KT 04/M00 A303 RMK A01 T00421003  RH  072%=      5-min Rain = 0
KSC1 070555Z 35007KT 04/M00 A303 RMK A01 T00421003  RH  072%=      5-min Rain = 0
KSC1 070556Z 35006KT 04/M00 A303 RMK A01 T00421003  RH  072%=      5-min Rain = 0
KSC1 070557Z 35007KT 04/M00 A303 RMK A01 T00421003  RH  072%=      5-min Rain = 0
KSC1 070558Z 34008KT 04/M00 A303 RMK A01 T00421003  RH  072%=      5-min Rain = 0
KSC1 070559Z 35006KT 04/M00 A303 RMK A01 T00421004  RH  072%=      5-min Rain = 0

Page generated in 0.1298 seconds.